<?xml version="1.0" encoding="UTF-8" standalone="no" ?>
<gpx xmlns="http://www.topografix.com/GPX/1/1" xmlns:xsi="http://www.w3.org/2001/XMLSchema-instance" xsi:schemaLocation="http://www.topografix.com/GPX/1/1 http://www.topografix.com/GPX/1/1/gpx.xsd" version="1.1" creator="VisuGPX - https://www.visugpx.com">
  <metadata>
    <name>Le Tholonet - barrage Zola</name>
    <desc><![CDATA[Boucle au départ du Tholonet via le barrage Zola]]></desc>
  </metadata>
  <trk>
    <name><![CDATA[2019-03-29 Le Tholonet - barrage Zola]]></name>
    <trkseg>
      <trkpt lat="43.52253" lon="5.51179">
        <ele>186.59765625</ele>
        <time>2019-03-23T10:25:20Z</time>
      </trkpt>
      <trkpt lat="43.52252" lon="5.5118">
        <ele>186.6953125</ele>
        <time>2019-03-23T10:25:39Z</time>
      </trkpt>
      <trkpt lat="43.52252" lon="5.5118">
        <ele>186.71875</ele>
        <time>2019-03-23T10:25:56Z</time>
      </trkpt>
      <trkpt lat="43.5225" lon="5.51177">
        <ele>186.421875</ele>
        <time>2019-03-23T10:26:13Z</time>
      </trkpt>
      <trkpt lat="43.52249" lon="5.51176">
        <ele>186.328125</ele>
        <time>2019-03-23T10:26:43Z</time>
      </trkpt>
      <trkpt lat="43.5225" lon="5.51175">
        <ele>186.21875</ele>
        <time>2019-03-23T10:26:55Z</time>
      </trkpt>
      <trkpt lat="43.5225" lon="5.51176">
        <ele>186.28125</ele>
        <time>2019-03-23T10:27:23Z</time>
      </trkpt>
      <trkpt lat="43.52249" lon="5.51178">
        <ele>186.46484375</ele>
        <time>2019-03-23T10:27:36Z</time>
      </trkpt>
      <trkpt lat="43.52254" lon="5.51183">
        <ele>186.99609375</ele>
        <time>2019-03-23T10:27:46Z</time>
      </trkpt>
      <trkpt lat="43.5225" lon="5.51188">
        <ele>187.5234375</ele>
        <time>2019-03-23T10:27:56Z</time>
      </trkpt>
      <trkpt lat="43.52242" lon="5.51181">
        <ele>186.8671875</ele>
        <time>2019-03-23T10:28:12Z</time>
      </trkpt>
      <trkpt lat="43.52239" lon="5.51178">
        <ele>186.5078125</ele>
        <time>2019-03-23T10:28:19Z</time>
      </trkpt>
      <trkpt lat="43.52231" lon="5.51169">
        <ele>185.4765625</ele>
        <time>2019-03-23T10:28:31Z</time>
      </trkpt>
      <trkpt lat="43.52227" lon="5.5116">
        <ele>184.70703125</ele>
        <time>2019-03-23T10:28:40Z</time>
      </trkpt>
      <trkpt lat="43.52227" lon="5.51159">
        <ele>184.6328125</ele>
        <time>2019-03-23T10:28:43Z</time>
      </trkpt>
      <trkpt lat="43.52224" lon="5.51151">
        <ele>184.01953125</ele>
        <time>2019-03-23T10:28:51Z</time>
      </trkpt>
      <trkpt lat="43.52221" lon="5.51148">
        <ele>183.8046875</ele>
        <time>2019-03-23T10:28:54Z</time>
      </trkpt>
      <trkpt lat="43.52216" lon="5.51136">
        <ele>182.94140625</ele>
        <time>2019-03-23T10:29:06Z</time>
      </trkpt>
      <trkpt lat="43.52214" lon="5.5113">
        <ele>182.56640625</ele>
        <time>2019-03-23T10:29:11Z</time>
      </trkpt>
      <trkpt lat="43.52211" lon="5.51129">
        <ele>182.49609375</ele>
        <time>2019-03-23T10:29:14Z</time>
      </trkpt>
      <trkpt lat="43.522" lon="5.51134">
        <ele>182.53125</ele>
        <time>2019-03-23T10:29:25Z</time>
      </trkpt>
      <trkpt lat="43.52197" lon="5.51137">
        <ele>182.640625</ele>
        <time>2019-03-23T10:29:29Z</time>
      </trkpt>
      <trkpt lat="43.52196" lon="5.51144">
        <ele>183.18359375</ele>
        <time>2019-03-23T10:29:35Z</time>
      </trkpt>
      <trkpt lat="43.52196" lon="5.51149">
        <ele>183.640625</ele>
        <time>2019-03-23T10:29:37Z</time>
      </trkpt>
      <trkpt lat="43.52192" lon="5.51161">
        <ele>184.66015625</ele>
        <time>2019-03-23T10:29:47Z</time>
      </trkpt>
      <trkpt lat="43.52187" lon="5.51168">
        <ele>185.30859375</ele>
        <time>2019-03-23T10:29:58Z</time>
      </trkpt>
      <trkpt lat="43.52187" lon="5.51169">
        <ele>185.3828125</ele>
        <time>2019-03-23T10:30:01Z</time>
      </trkpt>
      <trkpt lat="43.52186" lon="5.51186">
        <ele>186.703125</ele>
        <time>2019-03-23T10:30:13Z</time>
      </trkpt>
      <trkpt lat="43.52176" lon="5.51197">
        <ele>187.13671875</ele>
        <time>2019-03-23T10:30:26Z</time>
      </trkpt>
      <trkpt lat="43.52176" lon="5.51199">
        <ele>187.265625</ele>
        <time>2019-03-23T10:30:28Z</time>
      </trkpt>
      <trkpt lat="43.52175" lon="5.51203">
        <ele>187.484375</ele>
        <time>2019-03-23T10:30:32Z</time>
      </trkpt>
      <trkpt lat="43.52172" lon="5.51204">
        <ele>187.37890625</ele>
        <time>2019-03-23T10:30:35Z</time>
      </trkpt>
      <trkpt lat="43.5218" lon="5.51234">
        <ele>189.3671875</ele>
        <time>2019-03-23T10:30:47Z</time>
      </trkpt>
      <trkpt lat="43.52178" lon="5.51236">
        <ele>189.35546875</ele>
        <time>2019-03-23T10:30:51Z</time>
      </trkpt>
      <trkpt lat="43.52177" lon="5.51247">
        <ele>189.66796875</ele>
        <time>2019-03-23T10:31:00Z</time>
      </trkpt>
      <trkpt lat="43.52181" lon="5.51263">
        <ele>190.47265625</ele>
        <time>2019-03-23T10:31:10Z</time>
      </trkpt>
      <trkpt lat="43.52184" lon="5.5126">
        <ele>190.62109375</ele>
        <time>2019-03-23T10:31:24Z</time>
      </trkpt>
      <trkpt lat="43.52188" lon="5.51266">
        <ele>191.0859375</ele>
        <time>2019-03-23T10:31:36Z</time>
      </trkpt>
      <trkpt lat="43.5219" lon="5.51267">
        <ele>191.27734375</ele>
        <time>2019-03-23T10:31:39Z</time>
      </trkpt>
      <trkpt lat="43.52192" lon="5.51263">
        <ele>191.26953125</ele>
        <time>2019-03-23T10:31:50Z</time>
      </trkpt>
      <trkpt lat="43.52191" lon="5.51265">
        <ele>191.28515625</ele>
        <time>2019-03-23T10:31:56Z</time>
      </trkpt>
      <trkpt lat="43.52189" lon="5.51275">
        <ele>191.51953125</ele>
        <time>2019-03-23T10:32:08Z</time>
      </trkpt>
      <trkpt lat="43.52188" lon="5.51277">
        <ele>191.56640625</ele>
        <time>2019-03-23T10:32:10Z</time>
      </trkpt>
      <trkpt lat="43.52189" lon="5.51284">
        <ele>191.93359375</ele>
        <time>2019-03-23T10:32:22Z</time>
      </trkpt>
      <trkpt lat="43.52189" lon="5.51286">
        <ele>192.00390625</ele>
        <time>2019-03-23T10:32:24Z</time>
      </trkpt>
      <trkpt lat="43.52188" lon="5.51303">
        <ele>192.65234375</ele>
        <time>2019-03-23T10:32:38Z</time>
      </trkpt>
      <trkpt lat="43.52196" lon="5.51319">
        <ele>193.546875</ele>
        <time>2019-03-23T10:32:51Z</time>
      </trkpt>
      <trkpt lat="43.52199" lon="5.51332">
        <ele>193.9609375</ele>
        <time>2019-03-23T10:33:04Z</time>
      </trkpt>
      <trkpt lat="43.52202" lon="5.51346">
        <ele>194.5625</ele>
        <time>2019-03-23T10:33:17Z</time>
      </trkpt>
      <trkpt lat="43.52203" lon="5.51358">
        <ele>195.015625</ele>
        <time>2019-03-23T10:33:28Z</time>
      </trkpt>
      <trkpt lat="43.52205" lon="5.51369">
        <ele>195.421875</ele>
        <time>2019-03-23T10:33:38Z</time>
      </trkpt>
      <trkpt lat="43.52206" lon="5.51371">
        <ele>195.4921875</ele>
        <time>2019-03-23T10:33:39Z</time>
      </trkpt>
      <trkpt lat="43.52206" lon="5.51376">
        <ele>195.5390625</ele>
        <time>2019-03-23T10:33:41Z</time>
      </trkpt>
      <trkpt lat="43.52207" lon="5.51395">
        <ele>195.6328125</ele>
        <time>2019-03-23T10:33:53Z</time>
      </trkpt>
      <trkpt lat="43.52208" lon="5.51406">
        <ele>195.87109375</ele>
        <time>2019-03-23T10:34:03Z</time>
      </trkpt>
      <trkpt lat="43.52208" lon="5.51406">
        <ele>195.80859375</ele>
        <time>2019-03-23T10:34:04Z</time>
      </trkpt>
      <trkpt lat="43.52209" lon="5.51418">
        <ele>195.91796875</ele>
        <time>2019-03-23T10:34:17Z</time>
      </trkpt>
      <trkpt lat="43.52208" lon="5.51429">
        <ele>195.8203125</ele>
        <time>2019-03-23T10:34:31Z</time>
      </trkpt>
      <trkpt lat="43.52209" lon="5.51439">
        <ele>196.01171875</ele>
        <time>2019-03-23T10:34:56Z</time>
      </trkpt>
      <trkpt lat="43.52218" lon="5.51435">
        <ele>196.98828125</ele>
        <time>2019-03-23T10:35:29Z</time>
      </trkpt>
      <trkpt lat="43.52219" lon="5.51436">
        <ele>197.0703125</ele>
        <time>2019-03-23T10:35:41Z</time>
      </trkpt>
      <trkpt lat="43.52218" lon="5.51444">
        <ele>196.8828125</ele>
        <time>2019-03-23T10:35:54Z</time>
      </trkpt>
      <trkpt lat="43.52227" lon="5.51439">
        <ele>197.9375</ele>
        <time>2019-03-23T10:36:11Z</time>
      </trkpt>
      <trkpt lat="43.52228" lon="5.51434">
        <ele>198.03125</ele>
        <time>2019-03-23T10:36:23Z</time>
      </trkpt>
      <trkpt lat="43.52227" lon="5.51429">
        <ele>197.953125</ele>
        <time>2019-03-23T10:36:51Z</time>
      </trkpt>
      <trkpt lat="43.5223" lon="5.51431">
        <ele>198.26171875</ele>
        <time>2019-03-23T10:37:09Z</time>
      </trkpt>
      <trkpt lat="43.52234" lon="5.51436">
        <ele>198.66796875</ele>
        <time>2019-03-23T10:37:22Z</time>
      </trkpt>
      <trkpt lat="43.52238" lon="5.51437">
        <ele>199.13671875</ele>
        <time>2019-03-23T10:37:34Z</time>
      </trkpt>
      <trkpt lat="43.52234" lon="5.5143">
        <ele>198.62109375</ele>
        <time>2019-03-23T10:37:47Z</time>
      </trkpt>
      <trkpt lat="43.52235" lon="5.51432">
        <ele>198.80859375</ele>
        <time>2019-03-23T10:38:08Z</time>
      </trkpt>
      <trkpt lat="43.5223" lon="5.51433">
        <ele>198.265625</ele>
        <time>2019-03-23T10:38:32Z</time>
      </trkpt>
      <trkpt lat="43.52232" lon="5.51444">
        <ele>198.37890625</ele>
        <time>2019-03-23T10:38:34Z</time>
      </trkpt>
      <trkpt lat="43.52231" lon="5.5145">
        <ele>198.23046875</ele>
        <time>2019-03-23T10:38:49Z</time>
      </trkpt>
      <trkpt lat="43.5223" lon="5.51454">
        <ele>198.12890625</ele>
        <time>2019-03-23T10:39:08Z</time>
      </trkpt>
      <trkpt lat="43.52228" lon="5.51449">
        <ele>197.9453125</ele>
        <time>2019-03-23T10:39:27Z</time>
      </trkpt>
      <trkpt lat="43.52232" lon="5.51446">
        <ele>198.3671875</ele>
        <time>2019-03-23T10:39:53Z</time>
      </trkpt>
      <trkpt lat="43.52242" lon="5.51455">
        <ele>199.5703125</ele>
        <time>2019-03-23T10:40:07Z</time>
      </trkpt>
      <trkpt lat="43.52247" lon="5.51446">
        <ele>200.06640625</ele>
        <time>2019-03-23T10:40:21Z</time>
      </trkpt>
      <trkpt lat="43.52248" lon="5.51449">
        <ele>200.25</ele>
        <time>2019-03-23T10:40:32Z</time>
      </trkpt>
      <trkpt lat="43.52258" lon="5.51453">
        <ele>201.55078125</ele>
        <time>2019-03-23T10:40:46Z</time>
      </trkpt>
      <trkpt lat="43.52261" lon="5.51453">
        <ele>201.91796875</ele>
        <time>2019-03-23T10:40:50Z</time>
      </trkpt>
      <trkpt lat="43.5227" lon="5.51457">
        <ele>203.09765625</ele>
        <time>2019-03-23T10:41:02Z</time>
      </trkpt>
      <trkpt lat="43.52279" lon="5.5146">
        <ele>204.1953125</ele>
        <time>2019-03-23T10:41:15Z</time>
      </trkpt>
      <trkpt lat="43.52287" lon="5.51462">
        <ele>205.13671875</ele>
        <time>2019-03-23T10:41:29Z</time>
      </trkpt>
      <trkpt lat="43.52293" lon="5.51466">
        <ele>205.93359375</ele>
        <time>2019-03-23T10:41:43Z</time>
      </trkpt>
      <trkpt lat="43.52298" lon="5.51468">
        <ele>206.7109375</ele>
        <time>2019-03-23T10:41:55Z</time>
      </trkpt>
      <trkpt lat="43.52313" lon="5.51467">
        <ele>208.7265625</ele>
        <time>2019-03-23T10:42:11Z</time>
      </trkpt>
      <trkpt lat="43.52323" lon="5.51472">
        <ele>210.4140625</ele>
        <time>2019-03-23T10:42:26Z</time>
      </trkpt>
      <trkpt lat="43.5233" lon="5.51476">
        <ele>211.62890625</ele>
        <time>2019-03-23T10:42:38Z</time>
      </trkpt>
      <trkpt lat="43.5234" lon="5.51481">
        <ele>213.2890625</ele>
        <time>2019-03-23T10:42:52Z</time>
      </trkpt>
      <trkpt lat="43.52348" lon="5.51482">
        <ele>214.4375</ele>
        <time>2019-03-23T10:43:03Z</time>
      </trkpt>
      <trkpt lat="43.52354" lon="5.51479">
        <ele>214.6796875</ele>
        <time>2019-03-23T10:43:15Z</time>
      </trkpt>
      <trkpt lat="43.52356" lon="5.51479">
        <ele>214.8203125</ele>
        <time>2019-03-23T10:43:28Z</time>
      </trkpt>
      <trkpt lat="43.52363" lon="5.51487">
        <ele>215.7890625</ele>
        <time>2019-03-23T10:43:43Z</time>
      </trkpt>
      <trkpt lat="43.52371" lon="5.51488">
        <ele>216.5625</ele>
        <time>2019-03-23T10:43:57Z</time>
      </trkpt>
      <trkpt lat="43.52378" lon="5.51488">
        <ele>217.23828125</ele>
        <time>2019-03-23T10:44:07Z</time>
      </trkpt>
      <trkpt lat="43.52393" lon="5.51497">
        <ele>219.76953125</ele>
        <time>2019-03-23T10:44:21Z</time>
      </trkpt>
      <trkpt lat="43.52395" lon="5.5151">
        <ele>221.23828125</ele>
        <time>2019-03-23T10:44:37Z</time>
      </trkpt>
      <trkpt lat="43.52401" lon="5.51519">
        <ele>222.96484375</ele>
        <time>2019-03-23T10:44:50Z</time>
      </trkpt>
      <trkpt lat="43.52405" lon="5.51523">
        <ele>224.0078125</ele>
        <time>2019-03-23T10:45:02Z</time>
      </trkpt>
      <trkpt lat="43.52409" lon="5.51528">
        <ele>225.3671875</ele>
        <time>2019-03-23T10:45:13Z</time>
      </trkpt>
      <trkpt lat="43.52418" lon="5.51538">
        <ele>227.9375</ele>
        <time>2019-03-23T10:45:28Z</time>
      </trkpt>
      <trkpt lat="43.52423" lon="5.51538">
        <ele>228.87890625</ele>
        <time>2019-03-23T10:45:40Z</time>
      </trkpt>
      <trkpt lat="43.52428" lon="5.51539">
        <ele>229.875</ele>
        <time>2019-03-23T10:45:50Z</time>
      </trkpt>
      <trkpt lat="43.5244" lon="5.51535">
        <ele>232.6796875</ele>
        <time>2019-03-23T10:46:02Z</time>
      </trkpt>
      <trkpt lat="43.52457" lon="5.51518">
        <ele>235.59765625</ele>
        <time>2019-03-23T10:46:17Z</time>
      </trkpt>
      <trkpt lat="43.52458" lon="5.5152">
        <ele>236.1484375</ele>
        <time>2019-03-23T10:46:30Z</time>
      </trkpt>
      <trkpt lat="43.52453" lon="5.51517">
        <ele>234.51953125</ele>
        <time>2019-03-23T10:46:44Z</time>
      </trkpt>
      <trkpt lat="43.52458" lon="5.51526">
        <ele>236.703125</ele>
        <time>2019-03-23T10:46:57Z</time>
      </trkpt>
      <trkpt lat="43.52459" lon="5.51531">
        <ele>237.65234375</ele>
        <time>2019-03-23T10:47:10Z</time>
      </trkpt>
      <trkpt lat="43.52465" lon="5.51532">
        <ele>239.6328125</ele>
        <time>2019-03-23T10:47:22Z</time>
      </trkpt>
      <trkpt lat="43.52467" lon="5.5154">
        <ele>241.359375</ele>
        <time>2019-03-23T10:47:36Z</time>
      </trkpt>
      <trkpt lat="43.5247" lon="5.51545">
        <ele>243.07421875</ele>
        <time>2019-03-23T10:47:49Z</time>
      </trkpt>
      <trkpt lat="43.5247" lon="5.5155">
        <ele>243.52734375</ele>
        <time>2019-03-23T10:48:00Z</time>
      </trkpt>
      <trkpt lat="43.5247" lon="5.51554">
        <ele>243.97265625</ele>
        <time>2019-03-23T10:48:12Z</time>
      </trkpt>
      <trkpt lat="43.52472" lon="5.51564">
        <ele>245.296875</ele>
        <time>2019-03-23T10:48:24Z</time>
      </trkpt>
      <trkpt lat="43.52469" lon="5.51575">
        <ele>245.26953125</ele>
        <time>2019-03-23T10:48:37Z</time>
      </trkpt>
      <trkpt lat="43.5247" lon="5.51579">
        <ele>245.91796875</ele>
        <time>2019-03-23T10:48:49Z</time>
      </trkpt>
      <trkpt lat="43.52473" lon="5.51595">
        <ele>248.4296875</ele>
        <time>2019-03-23T10:49:03Z</time>
      </trkpt>
      <trkpt lat="43.52473" lon="5.51605">
        <ele>249.71484375</ele>
        <time>2019-03-23T10:49:14Z</time>
      </trkpt>
      <trkpt lat="43.52469" lon="5.51619">
        <ele>249.515625</ele>
        <time>2019-03-23T10:49:25Z</time>
      </trkpt>
      <trkpt lat="43.52469" lon="5.51649">
        <ele>251.90234375</ele>
        <time>2019-03-23T10:49:36Z</time>
      </trkpt>
      <trkpt lat="43.52469" lon="5.51666">
        <ele>252.91796875</ele>
        <time>2019-03-23T10:49:47Z</time>
      </trkpt>
      <trkpt lat="43.52469" lon="5.51685">
        <ele>253.55859375</ele>
        <time>2019-03-23T10:50:00Z</time>
      </trkpt>
      <trkpt lat="43.52469" lon="5.51694">
        <ele>253.98828125</ele>
        <time>2019-03-23T10:50:06Z</time>
      </trkpt>
      <trkpt lat="43.52468" lon="5.517">
        <ele>253.609375</ele>
        <time>2019-03-23T10:50:13Z</time>
      </trkpt>
      <trkpt lat="43.52466" lon="5.5171">
        <ele>252.98828125</ele>
        <time>2019-03-23T10:50:22Z</time>
      </trkpt>
      <trkpt lat="43.52467" lon="5.51729">
        <ele>253.37890625</ele>
        <time>2019-03-23T10:50:37Z</time>
      </trkpt>
      <trkpt lat="43.52468" lon="5.51745">
        <ele>253.9765625</ele>
        <time>2019-03-23T10:50:48Z</time>
      </trkpt>
      <trkpt lat="43.52474" lon="5.5175">
        <ele>257.17578125</ele>
        <time>2019-03-23T10:51:02Z</time>
      </trkpt>
      <trkpt lat="43.52476" lon="5.51755">
        <ele>257.9765625</ele>
        <time>2019-03-23T10:51:14Z</time>
      </trkpt>
      <trkpt lat="43.52478" lon="5.5176">
        <ele>259.125</ele>
        <time>2019-03-23T10:51:21Z</time>
      </trkpt>
      <trkpt lat="43.52479" lon="5.51764">
        <ele>259.69140625</ele>
        <time>2019-03-23T10:51:26Z</time>
      </trkpt>
      <trkpt lat="43.52481" lon="5.51774">
        <ele>260.5234375</ele>
        <time>2019-03-23T10:51:38Z</time>
      </trkpt>
      <trkpt lat="43.52487" lon="5.51781">
        <ele>264.5</ele>
        <time>2019-03-23T10:51:51Z</time>
      </trkpt>
      <trkpt lat="43.52497" lon="5.51781">
        <ele>267.08984375</ele>
        <time>2019-03-23T10:52:03Z</time>
      </trkpt>
      <trkpt lat="43.52497" lon="5.51784">
        <ele>267.17578125</ele>
        <time>2019-03-23T10:52:14Z</time>
      </trkpt>
      <trkpt lat="43.52497" lon="5.51787">
        <ele>267.28125</ele>
        <time>2019-03-23T10:52:20Z</time>
      </trkpt>
      <trkpt lat="43.52501" lon="5.51793">
        <ele>268.81640625</ele>
        <time>2019-03-23T10:52:33Z</time>
      </trkpt>
      <trkpt lat="43.52507" lon="5.51803">
        <ele>271.06640625</ele>
        <time>2019-03-23T10:52:45Z</time>
      </trkpt>
      <trkpt lat="43.52511" lon="5.5181">
        <ele>272.85546875</ele>
        <time>2019-03-23T10:52:57Z</time>
      </trkpt>
      <trkpt lat="43.52512" lon="5.5181">
        <ele>273.00390625</ele>
        <time>2019-03-23T10:52:59Z</time>
      </trkpt>
      <trkpt lat="43.52515" lon="5.51817">
        <ele>274.625</ele>
        <time>2019-03-23T10:53:11Z</time>
      </trkpt>
      <trkpt lat="43.52518" lon="5.51826">
        <ele>276.1953125</ele>
        <time>2019-03-23T10:53:23Z</time>
      </trkpt>
      <trkpt lat="43.52522" lon="5.51832">
        <ele>277.55078125</ele>
        <time>2019-03-23T10:53:34Z</time>
      </trkpt>
      <trkpt lat="43.52528" lon="5.51828">
        <ele>278.0859375</ele>
        <time>2019-03-23T10:53:46Z</time>
      </trkpt>
      <trkpt lat="43.52531" lon="5.5183">
        <ele>278.9140625</ele>
        <time>2019-03-23T10:54:04Z</time>
      </trkpt>
      <trkpt lat="43.52534" lon="5.51825">
        <ele>278.8125</ele>
        <time>2019-03-23T10:54:20Z</time>
      </trkpt>
      <trkpt lat="43.52538" lon="5.51824">
        <ele>279.4375</ele>
        <time>2019-03-23T10:54:34Z</time>
      </trkpt>
      <trkpt lat="43.52543" lon="5.51825">
        <ele>280.4296875</ele>
        <time>2019-03-23T10:54:48Z</time>
      </trkpt>
      <trkpt lat="43.52541" lon="5.51827">
        <ele>280.375</ele>
        <time>2019-03-23T10:54:56Z</time>
      </trkpt>
      <trkpt lat="43.52545" lon="5.51833">
        <ele>281.21484375</ele>
        <time>2019-03-23T10:55:07Z</time>
      </trkpt>
      <trkpt lat="43.52546" lon="5.51835">
        <ele>281.42578125</ele>
        <time>2019-03-23T10:55:16Z</time>
      </trkpt>
      <trkpt lat="43.52551" lon="5.51837">
        <ele>281.296875</ele>
        <time>2019-03-23T10:55:27Z</time>
      </trkpt>
      <trkpt lat="43.52554" lon="5.51833">
        <ele>280.58984375</ele>
        <time>2019-03-23T10:55:45Z</time>
      </trkpt>
      <trkpt lat="43.52557" lon="5.51838">
        <ele>280.96875</ele>
        <time>2019-03-23T10:55:57Z</time>
      </trkpt>
      <trkpt lat="43.52563" lon="5.5184">
        <ele>280.953125</ele>
        <time>2019-03-23T10:56:03Z</time>
      </trkpt>
      <trkpt lat="43.52564" lon="5.51831">
        <ele>279.55859375</ele>
        <time>2019-03-23T10:56:15Z</time>
      </trkpt>
      <trkpt lat="43.52566" lon="5.51828">
        <ele>279.03125</ele>
        <time>2019-03-23T10:56:30Z</time>
      </trkpt>
      <trkpt lat="43.52566" lon="5.51826">
        <ele>278.86328125</ele>
        <time>2019-03-23T10:56:44Z</time>
      </trkpt>
      <trkpt lat="43.52566" lon="5.51834">
        <ele>279.80078125</ele>
        <time>2019-03-23T10:57:02Z</time>
      </trkpt>
      <trkpt lat="43.52565" lon="5.51833">
        <ele>279.6484375</ele>
        <time>2019-03-23T10:57:21Z</time>
      </trkpt>
      <trkpt lat="43.52569" lon="5.51834">
        <ele>279.55859375</ele>
        <time>2019-03-23T10:57:46Z</time>
      </trkpt>
      <trkpt lat="43.52578" lon="5.51838">
        <ele>281.3203125</ele>
        <time>2019-03-23T10:58:11Z</time>
      </trkpt>
      <trkpt lat="43.52577" lon="5.51832">
        <ele>280.48828125</ele>
        <time>2019-03-23T10:58:28Z</time>
      </trkpt>
      <trkpt lat="43.52571" lon="5.51821">
        <ele>278.0546875</ele>
        <time>2019-03-23T10:58:40Z</time>
      </trkpt>
      <trkpt lat="43.52572" lon="5.51811">
        <ele>277.12109375</ele>
        <time>2019-03-23T10:58:52Z</time>
      </trkpt>
      <trkpt lat="43.52572" lon="5.51809">
        <ele>276.8125</ele>
        <time>2019-03-23T10:58:56Z</time>
      </trkpt>
      <trkpt lat="43.52571" lon="5.51796">
        <ele>275.08984375</ele>
        <time>2019-03-23T10:59:08Z</time>
      </trkpt>
      <trkpt lat="43.52574" lon="5.51786">
        <ele>273.99609375</ele>
        <time>2019-03-23T10:59:20Z</time>
      </trkpt>
      <trkpt lat="43.52578" lon="5.51777">
        <ele>273.1171875</ele>
        <time>2019-03-23T10:59:32Z</time>
      </trkpt>
      <trkpt lat="43.52583" lon="5.51766">
        <ele>272.19921875</ele>
        <time>2019-03-23T10:59:46Z</time>
      </trkpt>
      <trkpt lat="43.52587" lon="5.51753">
        <ele>270.5078125</ele>
        <time>2019-03-23T10:59:59Z</time>
      </trkpt>
      <trkpt lat="43.52591" lon="5.51739">
        <ele>268.578125</ele>
        <time>2019-03-23T11:00:11Z</time>
      </trkpt>
      <trkpt lat="43.52592" lon="5.51724">
        <ele>266.65625</ele>
        <time>2019-03-23T11:00:24Z</time>
      </trkpt>
      <trkpt lat="43.52595" lon="5.51707">
        <ele>263.8125</ele>
        <time>2019-03-23T11:00:36Z</time>
      </trkpt>
      <trkpt lat="43.52597" lon="5.517">
        <ele>262.51171875</ele>
        <time>2019-03-23T11:00:44Z</time>
      </trkpt>
      <trkpt lat="43.526" lon="5.51685">
        <ele>261.10546875</ele>
        <time>2019-03-23T11:00:55Z</time>
      </trkpt>
      <trkpt lat="43.52601" lon="5.51675">
        <ele>260.9765625</ele>
        <time>2019-03-23T11:01:07Z</time>
      </trkpt>
      <trkpt lat="43.52604" lon="5.51668">
        <ele>261.4453125</ele>
        <time>2019-03-23T11:01:11Z</time>
      </trkpt>
      <trkpt lat="43.52607" lon="5.51659">
        <ele>261.625</ele>
        <time>2019-03-23T11:01:17Z</time>
      </trkpt>
      <trkpt lat="43.52609" lon="5.51648">
        <ele>261.08203125</ele>
        <time>2019-03-23T11:01:26Z</time>
      </trkpt>
      <trkpt lat="43.52607" lon="5.51633">
        <ele>258.9375</ele>
        <time>2019-03-23T11:01:36Z</time>
      </trkpt>
      <trkpt lat="43.52611" lon="5.51619">
        <ele>258.66796875</ele>
        <time>2019-03-23T11:01:45Z</time>
      </trkpt>
      <trkpt lat="43.52612" lon="5.51604">
        <ele>257.84765625</ele>
        <time>2019-03-23T11:01:55Z</time>
      </trkpt>
      <trkpt lat="43.52615" lon="5.51596">
        <ele>258.33984375</ele>
        <time>2019-03-23T11:02:06Z</time>
      </trkpt>
      <trkpt lat="43.52617" lon="5.51592">
        <ele>258.94140625</ele>
        <time>2019-03-23T11:02:11Z</time>
      </trkpt>
      <trkpt lat="43.52622" lon="5.51581">
        <ele>260.49609375</ele>
        <time>2019-03-23T11:02:23Z</time>
      </trkpt>
      <trkpt lat="43.52622" lon="5.51573">
        <ele>259.93359375</ele>
        <time>2019-03-23T11:02:30Z</time>
      </trkpt>
      <trkpt lat="43.52622" lon="5.51571">
        <ele>259.74609375</ele>
        <time>2019-03-23T11:02:31Z</time>
      </trkpt>
      <trkpt lat="43.52622" lon="5.5156">
        <ele>258.828125</ele>
        <time>2019-03-23T11:02:39Z</time>
      </trkpt>
      <trkpt lat="43.52621" lon="5.51559">
        <ele>258.57421875</ele>
        <time>2019-03-23T11:02:40Z</time>
      </trkpt>
      <trkpt lat="43.52621" lon="5.51545">
        <ele>257.69921875</ele>
        <time>2019-03-23T11:02:53Z</time>
      </trkpt>
      <trkpt lat="43.52622" lon="5.51543">
        <ele>258.0390625</ele>
        <time>2019-03-23T11:02:56Z</time>
      </trkpt>
      <trkpt lat="43.52623" lon="5.51533">
        <ele>257.921875</ele>
        <time>2019-03-23T11:03:03Z</time>
      </trkpt>
      <trkpt lat="43.52619" lon="5.51517">
        <ele>255.35546875</ele>
        <time>2019-03-23T11:03:15Z</time>
      </trkpt>
      <trkpt lat="43.52617" lon="5.51505">
        <ele>253.0546875</ele>
        <time>2019-03-23T11:03:24Z</time>
      </trkpt>
      <trkpt lat="43.52618" lon="5.51493">
        <ele>253.0078125</ele>
        <time>2019-03-23T11:03:34Z</time>
      </trkpt>
      <trkpt lat="43.52618" lon="5.51483">
        <ele>252.4375</ele>
        <time>2019-03-23T11:03:45Z</time>
      </trkpt>
      <trkpt lat="43.52618" lon="5.51467">
        <ele>251.1015625</ele>
        <time>2019-03-23T11:03:55Z</time>
      </trkpt>
      <trkpt lat="43.52619" lon="5.51459">
        <ele>251.609375</ele>
        <time>2019-03-23T11:04:00Z</time>
      </trkpt>
      <trkpt lat="43.52617" lon="5.51448">
        <ele>249.80859375</ele>
        <time>2019-03-23T11:04:12Z</time>
      </trkpt>
      <trkpt lat="43.52615" lon="5.51433">
        <ele>247.76953125</ele>
        <time>2019-03-23T11:04:22Z</time>
      </trkpt>
      <trkpt lat="43.52612" lon="5.51422">
        <ele>245.26171875</ele>
        <time>2019-03-23T11:04:31Z</time>
      </trkpt>
      <trkpt lat="43.52611" lon="5.51411">
        <ele>243.93359375</ele>
        <time>2019-03-23T11:04:43Z</time>
      </trkpt>
      <trkpt lat="43.52608" lon="5.51405">
        <ele>242.25</ele>
        <time>2019-03-23T11:04:48Z</time>
      </trkpt>
      <trkpt lat="43.52606" lon="5.51396">
        <ele>241.12890625</ele>
        <time>2019-03-23T11:05:00Z</time>
      </trkpt>
      <trkpt lat="43.52605" lon="5.51382">
        <ele>240.7578125</ele>
        <time>2019-03-23T11:05:11Z</time>
      </trkpt>
      <trkpt lat="43.52604" lon="5.51376">
        <ele>240.50390625</ele>
        <time>2019-03-23T11:05:17Z</time>
      </trkpt>
      <trkpt lat="43.52603" lon="5.51373">
        <ele>240.00390625</ele>
        <time>2019-03-23T11:05:19Z</time>
      </trkpt>
      <trkpt lat="43.526" lon="5.51359">
        <ele>238.8359375</ele>
        <time>2019-03-23T11:05:32Z</time>
      </trkpt>
      <trkpt lat="43.52598" lon="5.51356">
        <ele>237.27734375</ele>
        <time>2019-03-23T11:05:36Z</time>
      </trkpt>
      <trkpt lat="43.52596" lon="5.51341">
        <ele>236.22265625</ele>
        <time>2019-03-23T11:05:47Z</time>
      </trkpt>
      <trkpt lat="43.52591" lon="5.51324">
        <ele>233.44921875</ele>
        <time>2019-03-23T11:06:01Z</time>
      </trkpt>
      <trkpt lat="43.5257" lon="5.51275">
        <ele>221.625</ele>
        <time>2019-03-23T11:06:15Z</time>
      </trkpt>
      <trkpt lat="43.52573" lon="5.51257">
        <ele>224.37109375</ele>
        <time>2019-03-23T11:06:28Z</time>
      </trkpt>
      <trkpt lat="43.52574" lon="5.51253">
        <ele>224.77734375</ele>
        <time>2019-03-23T11:06:32Z</time>
      </trkpt>
      <trkpt lat="43.52574" lon="5.51247">
        <ele>225.23046875</ele>
        <time>2019-03-23T11:06:36Z</time>
      </trkpt>
      <trkpt lat="43.52574" lon="5.51233">
        <ele>226.2265625</ele>
        <time>2019-03-23T11:06:47Z</time>
      </trkpt>
      <trkpt lat="43.52576" lon="5.51221">
        <ele>228.01171875</ele>
        <time>2019-03-23T11:06:56Z</time>
      </trkpt>
      <trkpt lat="43.52576" lon="5.51212">
        <ele>227.07421875</ele>
        <time>2019-03-23T11:07:03Z</time>
      </trkpt>
      <trkpt lat="43.52574" lon="5.51191">
        <ele>222.83984375</ele>
        <time>2019-03-23T11:07:16Z</time>
      </trkpt>
      <trkpt lat="43.52571" lon="5.51179">
        <ele>219.64453125</ele>
        <time>2019-03-23T11:07:27Z</time>
      </trkpt>
      <trkpt lat="43.5257" lon="5.51176">
        <ele>218.7421875</ele>
        <time>2019-03-23T11:07:29Z</time>
      </trkpt>
      <trkpt lat="43.5257" lon="5.51161">
        <ele>216.2734375</ele>
        <time>2019-03-23T11:07:40Z</time>
      </trkpt>
      <trkpt lat="43.52568" lon="5.51154">
        <ele>214.5546875</ele>
        <time>2019-03-23T11:07:51Z</time>
      </trkpt>
      <trkpt lat="43.52568" lon="5.51151">
        <ele>214.01171875</ele>
        <time>2019-03-23T11:07:54Z</time>
      </trkpt>
      <trkpt lat="43.52567" lon="5.5115">
        <ele>213.421875</ele>
        <time>2019-03-23T11:07:56Z</time>
      </trkpt>
      <trkpt lat="43.52565" lon="5.5114">
        <ele>211.52734375</ele>
        <time>2019-03-23T11:08:01Z</time>
      </trkpt>
      <trkpt lat="43.52566" lon="5.5112">
        <ele>209.2734375</ele>
        <time>2019-03-23T11:08:12Z</time>
      </trkpt>
      <trkpt lat="43.52556" lon="5.51104">
        <ele>203</ele>
        <time>2019-03-23T11:08:22Z</time>
      </trkpt>
      <trkpt lat="43.52556" lon="5.51103">
        <ele>203.02734375</ele>
        <time>2019-03-23T11:08:24Z</time>
      </trkpt>
      <trkpt lat="43.52551" lon="5.51096">
        <ele>200.09375</ele>
        <time>2019-03-23T11:08:38Z</time>
      </trkpt>
      <trkpt lat="43.52547" lon="5.5109">
        <ele>198.26171875</ele>
        <time>2019-03-23T11:08:52Z</time>
      </trkpt>
      <trkpt lat="43.52542" lon="5.51095">
        <ele>196.5</ele>
        <time>2019-03-23T11:09:07Z</time>
      </trkpt>
      <trkpt lat="43.52546" lon="5.51097">
        <ele>198</ele>
        <time>2019-03-23T11:09:28Z</time>
      </trkpt>
      <trkpt lat="43.52546" lon="5.51095">
        <ele>197.7890625</ele>
        <time>2019-03-23T11:09:43Z</time>
      </trkpt>
      <trkpt lat="43.52547" lon="5.51092">
        <ele>198.33203125</ele>
        <time>2019-03-23T11:09:57Z</time>
      </trkpt>
      <trkpt lat="43.5254" lon="5.51096">
        <ele>196.30078125</ele>
        <time>2019-03-23T11:10:07Z</time>
      </trkpt>
      <trkpt lat="43.52549" lon="5.51103">
        <ele>199.80859375</ele>
        <time>2019-03-23T11:10:18Z</time>
      </trkpt>
      <trkpt lat="43.52554" lon="5.51096">
        <ele>201.25</ele>
        <time>2019-03-23T11:10:30Z</time>
      </trkpt>
      <trkpt lat="43.52556" lon="5.51086">
        <ele>201.42578125</ele>
        <time>2019-03-23T11:10:43Z</time>
      </trkpt>
      <trkpt lat="43.52552" lon="5.51082">
        <ele>199.56640625</ele>
        <time>2019-03-23T11:10:59Z</time>
      </trkpt>
      <trkpt lat="43.52548" lon="5.51082">
        <ele>197.95703125</ele>
        <time>2019-03-23T11:11:12Z</time>
      </trkpt>
      <trkpt lat="43.52549" lon="5.51074">
        <ele>197.37890625</ele>
        <time>2019-03-23T11:11:24Z</time>
      </trkpt>
      <trkpt lat="43.52551" lon="5.51077">
        <ele>198.36328125</ele>
        <time>2019-03-23T11:11:40Z</time>
      </trkpt>
      <trkpt lat="43.52549" lon="5.51073">
        <ele>197.27734375</ele>
        <time>2019-03-23T11:11:49Z</time>
      </trkpt>
      <trkpt lat="43.52546" lon="5.5107">
        <ele>195.85546875</ele>
        <time>2019-03-23T11:12:00Z</time>
      </trkpt>
      <trkpt lat="43.52539" lon="5.51069">
        <ele>193.9453125</ele>
        <time>2019-03-23T11:12:10Z</time>
      </trkpt>
      <trkpt lat="43.52536" lon="5.51066">
        <ele>193.37109375</ele>
        <time>2019-03-23T11:12:15Z</time>
      </trkpt>
      <trkpt lat="43.52533" lon="5.51068">
        <ele>193.2734375</ele>
        <time>2019-03-23T11:12:29Z</time>
      </trkpt>
      <trkpt lat="43.52538" lon="5.51087">
        <ele>195.6953125</ele>
        <time>2019-03-23T11:12:47Z</time>
      </trkpt>
      <trkpt lat="43.52543" lon="5.51079">
        <ele>195.71875</ele>
        <time>2019-03-23T11:12:58Z</time>
      </trkpt>
      <trkpt lat="43.52539" lon="5.5106">
        <ele>192.7890625</ele>
        <time>2019-03-23T11:13:15Z</time>
      </trkpt>
      <trkpt lat="43.5254" lon="5.51049">
        <ele>191.63671875</ele>
        <time>2019-03-23T11:13:28Z</time>
      </trkpt>
      <trkpt lat="43.52531" lon="5.51042">
        <ele>191.1328125</ele>
        <time>2019-03-23T11:13:41Z</time>
      </trkpt>
      <trkpt lat="43.52529" lon="5.51041">
        <ele>191.05078125</ele>
        <time>2019-03-23T11:13:59Z</time>
      </trkpt>
      <trkpt lat="43.52529" lon="5.51035">
        <ele>190.84375</ele>
        <time>2019-03-23T11:14:14Z</time>
      </trkpt>
      <trkpt lat="43.52527" lon="5.51028">
        <ele>190.65234375</ele>
        <time>2019-03-23T11:14:34Z</time>
      </trkpt>
      <trkpt lat="43.52527" lon="5.51026">
        <ele>190.57421875</ele>
        <time>2019-03-23T11:14:58Z</time>
      </trkpt>
      <trkpt lat="43.52525" lon="5.51022">
        <ele>191.32421875</ele>
        <time>2019-03-23T11:15:24Z</time>
      </trkpt>
      <trkpt lat="43.52522" lon="5.51015">
        <ele>193.0078125</ele>
        <time>2019-03-23T11:15:52Z</time>
      </trkpt>
      <trkpt lat="43.52525" lon="5.51015">
        <ele>192.86328125</ele>
        <time>2019-03-23T11:16:18Z</time>
      </trkpt>
      <trkpt lat="43.52518" lon="5.51016">
        <ele>192.9140625</ele>
        <time>2019-03-23T11:16:47Z</time>
      </trkpt>
      <trkpt lat="43.5253" lon="5.51013">
        <ele>193</ele>
        <time>2019-03-23T11:17:02Z</time>
      </trkpt>
      <trkpt lat="43.52529" lon="5.51011">
        <ele>193.56640625</ele>
        <time>2019-03-23T11:17:17Z</time>
      </trkpt>
      <trkpt lat="43.52528" lon="5.51002">
        <ele>195.484375</ele>
        <time>2019-03-23T11:17:26Z</time>
      </trkpt>
      <trkpt lat="43.5253" lon="5.50998">
        <ele>196.41015625</ele>
        <time>2019-03-23T11:17:39Z</time>
      </trkpt>
      <trkpt lat="43.5253" lon="5.50991">
        <ele>198.44140625</ele>
        <time>2019-03-23T11:17:52Z</time>
      </trkpt>
      <trkpt lat="43.52531" lon="5.50987">
        <ele>199.50390625</ele>
        <time>2019-03-23T11:17:57Z</time>
      </trkpt>
      <trkpt lat="43.52525" lon="5.5098">
        <ele>201.60546875</ele>
        <time>2019-03-23T11:18:09Z</time>
      </trkpt>
      <trkpt lat="43.52522" lon="5.50976">
        <ele>202.875</ele>
        <time>2019-03-23T11:18:20Z</time>
      </trkpt>
      <trkpt lat="43.52523" lon="5.50972">
        <ele>204.21875</ele>
        <time>2019-03-23T11:18:32Z</time>
      </trkpt>
      <trkpt lat="43.52521" lon="5.50963">
        <ele>207.12109375</ele>
        <time>2019-03-23T11:18:42Z</time>
      </trkpt>
      <trkpt lat="43.5251" lon="5.50958">
        <ele>209.15234375</ele>
        <time>2019-03-23T11:18:59Z</time>
      </trkpt>
      <trkpt lat="43.52511" lon="5.50947">
        <ele>213.109375</ele>
        <time>2019-03-23T11:19:11Z</time>
      </trkpt>
      <trkpt lat="43.52506" lon="5.50941">
        <ele>215.3046875</ele>
        <time>2019-03-23T11:19:22Z</time>
      </trkpt>
      <trkpt lat="43.52493" lon="5.50935">
        <ele>216.8125</ele>
        <time>2019-03-23T11:19:39Z</time>
      </trkpt>
      <trkpt lat="43.5249" lon="5.50926">
        <ele>220.02734375</ele>
        <time>2019-03-23T11:19:57Z</time>
      </trkpt>
      <trkpt lat="43.52486" lon="5.50922">
        <ele>220.8828125</ele>
        <time>2019-03-23T11:20:04Z</time>
      </trkpt>
      <trkpt lat="43.52486" lon="5.50923">
        <ele>220.3671875</ele>
        <time>2019-03-23T11:20:16Z</time>
      </trkpt>
      <trkpt lat="43.52485" lon="5.50921">
        <ele>220.765625</ele>
        <time>2019-03-23T11:20:34Z</time>
      </trkpt>
      <trkpt lat="43.52481" lon="5.50914">
        <ele>221.68359375</ele>
        <time>2019-03-23T11:21:06Z</time>
      </trkpt>
      <trkpt lat="43.52482" lon="5.50916">
        <ele>221.203125</ele>
        <time>2019-03-23T11:21:33Z</time>
      </trkpt>
      <trkpt lat="43.52484" lon="5.5092">
        <ele>221.09765625</ele>
        <time>2019-03-23T11:21:49Z</time>
      </trkpt>
      <trkpt lat="43.52484" lon="5.50929">
        <ele>217.80078125</ele>
        <time>2019-03-23T11:22:00Z</time>
      </trkpt>
      <trkpt lat="43.52489" lon="5.50927">
        <ele>219.7265625</ele>
        <time>2019-03-23T11:22:06Z</time>
      </trkpt>
      <trkpt lat="43.52495" lon="5.50922">
        <ele>222.0625</ele>
        <time>2019-03-23T11:22:18Z</time>
      </trkpt>
      <trkpt lat="43.52498" lon="5.50911">
        <ele>226.4609375</ele>
        <time>2019-03-23T11:22:30Z</time>
      </trkpt>
      <trkpt lat="43.52499" lon="5.50894">
        <ele>232.46875</ele>
        <time>2019-03-23T11:22:44Z</time>
      </trkpt>
      <trkpt lat="43.52501" lon="5.50883">
        <ele>236.76953125</ele>
        <time>2019-03-23T11:22:55Z</time>
      </trkpt>
      <trkpt lat="43.525" lon="5.50879">
        <ele>237.59375</ele>
        <time>2019-03-23T11:22:58Z</time>
      </trkpt>
      <trkpt lat="43.52498" lon="5.50865">
        <ele>241.4609375</ele>
        <time>2019-03-23T11:23:08Z</time>
      </trkpt>
      <trkpt lat="43.52495" lon="5.50841">
        <ele>246.42578125</ele>
        <time>2019-03-23T11:23:21Z</time>
      </trkpt>
      <trkpt lat="43.52494" lon="5.50823">
        <ele>249.375</ele>
        <time>2019-03-23T11:23:33Z</time>
      </trkpt>
      <trkpt lat="43.52493" lon="5.5081">
        <ele>250.375</ele>
        <time>2019-03-23T11:23:40Z</time>
      </trkpt>
      <trkpt lat="43.52492" lon="5.50804">
        <ele>250.890625</ele>
        <time>2019-03-23T11:23:45Z</time>
      </trkpt>
      <trkpt lat="43.5249" lon="5.50801">
        <ele>250.75</ele>
        <time>2019-03-23T11:23:48Z</time>
      </trkpt>
      <trkpt lat="43.52483" lon="5.50795">
        <ele>248.03515625</ele>
        <time>2019-03-23T11:23:55Z</time>
      </trkpt>
      <trkpt lat="43.52478" lon="5.50786">
        <ele>244.32421875</ele>
        <time>2019-03-23T11:24:04Z</time>
      </trkpt>
      <trkpt lat="43.52472" lon="5.50777">
        <ele>241.08984375</ele>
        <time>2019-03-23T11:24:16Z</time>
      </trkpt>
      <trkpt lat="43.52472" lon="5.50776">
        <ele>241.07421875</ele>
        <time>2019-03-23T11:24:17Z</time>
      </trkpt>
      <trkpt lat="43.52473" lon="5.50765">
        <ele>242.2421875</ele>
        <time>2019-03-23T11:24:28Z</time>
      </trkpt>
      <trkpt lat="43.52475" lon="5.50761">
        <ele>244.0546875</ele>
        <time>2019-03-23T11:24:32Z</time>
      </trkpt>
      <trkpt lat="43.52476" lon="5.50754">
        <ele>245.13671875</ele>
        <time>2019-03-23T11:24:38Z</time>
      </trkpt>
      <trkpt lat="43.52478" lon="5.50746">
        <ele>246.29296875</ele>
        <time>2019-03-23T11:24:43Z</time>
      </trkpt>
      <trkpt lat="43.52478" lon="5.5074">
        <ele>246.71484375</ele>
        <time>2019-03-23T11:24:47Z</time>
      </trkpt>
      <trkpt lat="43.52478" lon="5.50729">
        <ele>246.76171875</ele>
        <time>2019-03-23T11:24:55Z</time>
      </trkpt>
      <trkpt lat="43.52478" lon="5.50726">
        <ele>246.47265625</ele>
        <time>2019-03-23T11:24:58Z</time>
      </trkpt>
      <trkpt lat="43.52479" lon="5.50718">
        <ele>247.11328125</ele>
        <time>2019-03-23T11:25:03Z</time>
      </trkpt>
      <trkpt lat="43.52478" lon="5.50704">
        <ele>246.59765625</ele>
        <time>2019-03-23T11:25:15Z</time>
      </trkpt>
      <trkpt lat="43.52468" lon="5.50696">
        <ele>239.44921875</ele>
        <time>2019-03-23T11:25:28Z</time>
      </trkpt>
      <trkpt lat="43.52463" lon="5.50696">
        <ele>236.33203125</ele>
        <time>2019-03-23T11:25:33Z</time>
      </trkpt>
      <trkpt lat="43.52453" lon="5.50689">
        <ele>230.5234375</ele>
        <time>2019-03-23T11:25:43Z</time>
      </trkpt>
      <trkpt lat="43.52445" lon="5.50687">
        <ele>225.359375</ele>
        <time>2019-03-23T11:25:52Z</time>
      </trkpt>
      <trkpt lat="43.52441" lon="5.50687">
        <ele>223.16015625</ele>
        <time>2019-03-23T11:25:55Z</time>
      </trkpt>
      <trkpt lat="43.52431" lon="5.5068">
        <ele>217.78125</ele>
        <time>2019-03-23T11:26:05Z</time>
      </trkpt>
      <trkpt lat="43.52426" lon="5.50672">
        <ele>215.8203125</ele>
        <time>2019-03-23T11:26:17Z</time>
      </trkpt>
      <trkpt lat="43.52421" lon="5.50666">
        <ele>214.07421875</ele>
        <time>2019-03-23T11:26:27Z</time>
      </trkpt>
      <trkpt lat="43.52417" lon="5.50663">
        <ele>212.47265625</ele>
        <time>2019-03-23T11:26:40Z</time>
      </trkpt>
      <trkpt lat="43.52417" lon="5.5066">
        <ele>212.74609375</ele>
        <time>2019-03-23T11:26:49Z</time>
      </trkpt>
      <trkpt lat="43.52417" lon="5.50649">
        <ele>214.42578125</ele>
        <time>2019-03-23T11:27:00Z</time>
      </trkpt>
      <trkpt lat="43.52417" lon="5.50637">
        <ele>216.4765625</ele>
        <time>2019-03-23T11:27:12Z</time>
      </trkpt>
      <trkpt lat="43.52412" lon="5.50618">
        <ele>217.2890625</ele>
        <time>2019-03-23T11:27:25Z</time>
      </trkpt>
      <trkpt lat="43.52405" lon="5.50603">
        <ele>215.9296875</ele>
        <time>2019-03-23T11:27:39Z</time>
      </trkpt>
      <trkpt lat="43.52403" lon="5.50604">
        <ele>214.8125</ele>
        <time>2019-03-23T11:27:51Z</time>
      </trkpt>
      <trkpt lat="43.52399" lon="5.50612">
        <ele>212.91796875</ele>
        <time>2019-03-23T11:28:04Z</time>
      </trkpt>
      <trkpt lat="43.52396" lon="5.50615">
        <ele>211.1484375</ele>
        <time>2019-03-23T11:28:08Z</time>
      </trkpt>
      <trkpt lat="43.52391" lon="5.50632">
        <ele>207.21484375</ele>
        <time>2019-03-23T11:28:21Z</time>
      </trkpt>
      <trkpt lat="43.52389" lon="5.50643">
        <ele>204.98828125</ele>
        <time>2019-03-23T11:28:31Z</time>
      </trkpt>
      <trkpt lat="43.52389" lon="5.50645">
        <ele>204.8828125</ele>
        <time>2019-03-23T11:28:45Z</time>
      </trkpt>
      <trkpt lat="43.5239" lon="5.50641">
        <ele>205.63671875</ele>
        <time>2019-03-23T11:29:01Z</time>
      </trkpt>
      <trkpt lat="43.52392" lon="5.50643">
        <ele>205.77734375</ele>
        <time>2019-03-23T11:29:30Z</time>
      </trkpt>
      <trkpt lat="43.52393" lon="5.50643">
        <ele>206.07421875</ele>
        <time>2019-03-23T11:29:48Z</time>
      </trkpt>
      <trkpt lat="43.52391" lon="5.5064">
        <ele>205.88671875</ele>
        <time>2019-03-23T11:30:11Z</time>
      </trkpt>
      <trkpt lat="43.52389" lon="5.50647">
        <ele>204.359375</ele>
        <time>2019-03-23T11:30:26Z</time>
      </trkpt>
      <trkpt lat="43.52395" lon="5.50658">
        <ele>204.625</ele>
        <time>2019-03-23T11:30:43Z</time>
      </trkpt>
      <trkpt lat="43.52394" lon="5.5066">
        <ele>204.2265625</ele>
        <time>2019-03-23T11:31:05Z</time>
      </trkpt>
      <trkpt lat="43.52393" lon="5.50659">
        <ele>203.96484375</ele>
        <time>2019-03-23T11:31:28Z</time>
      </trkpt>
      <trkpt lat="43.52394" lon="5.50652">
        <ele>205.2734375</ele>
        <time>2019-03-23T11:31:36Z</time>
      </trkpt>
      <trkpt lat="43.52392" lon="5.50646">
        <ele>205.45703125</ele>
        <time>2019-03-23T11:31:50Z</time>
      </trkpt>
      <trkpt lat="43.52394" lon="5.50633">
        <ele>207.9140625</ele>
        <time>2019-03-23T11:32:04Z</time>
      </trkpt>
      <trkpt lat="43.52393" lon="5.50629">
        <ele>207.98828125</ele>
        <time>2019-03-23T11:32:18Z</time>
      </trkpt>
      <trkpt lat="43.52393" lon="5.50623">
        <ele>209.140625</ele>
        <time>2019-03-23T11:32:33Z</time>
      </trkpt>
      <trkpt lat="43.52395" lon="5.50616">
        <ele>210.77734375</ele>
        <time>2019-03-23T11:32:43Z</time>
      </trkpt>
      <trkpt lat="43.52399" lon="5.50602">
        <ele>213.66015625</ele>
        <time>2019-03-23T11:32:56Z</time>
      </trkpt>
      <trkpt lat="43.524" lon="5.50598">
        <ele>214.12890625</ele>
        <time>2019-03-23T11:32:59Z</time>
      </trkpt>
      <trkpt lat="43.52405" lon="5.50582">
        <ele>216.484375</ele>
        <time>2019-03-23T11:33:12Z</time>
      </trkpt>
      <trkpt lat="43.52408" lon="5.50566">
        <ele>217.75</ele>
        <time>2019-03-23T11:33:25Z</time>
      </trkpt>
      <trkpt lat="43.52408" lon="5.5056">
        <ele>217.796875</ele>
        <time>2019-03-23T11:33:30Z</time>
      </trkpt>
      <trkpt lat="43.5241" lon="5.50548">
        <ele>217.6015625</ele>
        <time>2019-03-23T11:33:43Z</time>
      </trkpt>
      <trkpt lat="43.52411" lon="5.5054">
        <ele>217.3359375</ele>
        <time>2019-03-23T11:33:50Z</time>
      </trkpt>
      <trkpt lat="43.52416" lon="5.50516">
        <ele>216.29296875</ele>
        <time>2019-03-23T11:34:05Z</time>
      </trkpt>
      <trkpt lat="43.52418" lon="5.50502">
        <ele>215.07421875</ele>
        <time>2019-03-23T11:34:18Z</time>
      </trkpt>
      <trkpt lat="43.52423" lon="5.50482">
        <ele>213.9296875</ele>
        <time>2019-03-23T11:34:33Z</time>
      </trkpt>
      <trkpt lat="43.52429" lon="5.50478">
        <ele>214.77734375</ele>
        <time>2019-03-23T11:34:42Z</time>
      </trkpt>
      <trkpt lat="43.52437" lon="5.5047">
        <ele>215.0390625</ele>
        <time>2019-03-23T11:34:55Z</time>
      </trkpt>
      <trkpt lat="43.52438" lon="5.50469">
        <ele>215.0234375</ele>
        <time>2019-03-23T11:34:56Z</time>
      </trkpt>
      <trkpt lat="43.52443" lon="5.50456">
        <ele>214.44140625</ele>
        <time>2019-03-23T11:35:09Z</time>
      </trkpt>
      <trkpt lat="43.52447" lon="5.50448">
        <ele>213.84375</ele>
        <time>2019-03-23T11:35:20Z</time>
      </trkpt>
      <trkpt lat="43.52452" lon="5.50438">
        <ele>213.4296875</ele>
        <time>2019-03-23T11:35:33Z</time>
      </trkpt>
      <trkpt lat="43.52454" lon="5.50431">
        <ele>212.96875</ele>
        <time>2019-03-23T11:35:43Z</time>
      </trkpt>
      <trkpt lat="43.52458" lon="5.50429">
        <ele>213.484375</ele>
        <time>2019-03-23T11:35:57Z</time>
      </trkpt>
      <trkpt lat="43.52467" lon="5.50423">
        <ele>213.7578125</ele>
        <time>2019-03-23T11:36:10Z</time>
      </trkpt>
      <trkpt lat="43.52471" lon="5.50422">
        <ele>214.09375</ele>
        <time>2019-03-23T11:36:14Z</time>
      </trkpt>
      <trkpt lat="43.5248" lon="5.50418">
        <ele>214.578125</ele>
        <time>2019-03-23T11:36:26Z</time>
      </trkpt>
      <trkpt lat="43.52482" lon="5.50417">
        <ele>214.76171875</ele>
        <time>2019-03-23T11:36:28Z</time>
      </trkpt>
      <trkpt lat="43.52487" lon="5.50414">
        <ele>214.99609375</ele>
        <time>2019-03-23T11:36:40Z</time>
      </trkpt>
      <trkpt lat="43.5249" lon="5.50416">
        <ele>215.55859375</ele>
        <time>2019-03-23T11:36:51Z</time>
      </trkpt>
      <trkpt lat="43.52496" lon="5.5042">
        <ele>216.75390625</ele>
        <time>2019-03-23T11:37:04Z</time>
      </trkpt>
      <trkpt lat="43.52506" lon="5.50423">
        <ele>218.20703125</ele>
        <time>2019-03-23T11:37:19Z</time>
      </trkpt>
      <trkpt lat="43.52514" lon="5.50426">
        <ele>219.33203125</ele>
        <time>2019-03-23T11:37:33Z</time>
      </trkpt>
      <trkpt lat="43.52528" lon="5.5043">
        <ele>221.44921875</ele>
        <time>2019-03-23T11:37:45Z</time>
      </trkpt>
      <trkpt lat="43.52538" lon="5.50428">
        <ele>222.9453125</ele>
        <time>2019-03-23T11:37:57Z</time>
      </trkpt>
      <trkpt lat="43.52548" lon="5.50431">
        <ele>224.43359375</ele>
        <time>2019-03-23T11:38:09Z</time>
      </trkpt>
      <trkpt lat="43.52557" lon="5.50433">
        <ele>225.7109375</ele>
        <time>2019-03-23T11:38:20Z</time>
      </trkpt>
      <trkpt lat="43.52565" lon="5.50436">
        <ele>226.75</ele>
        <time>2019-03-23T11:38:33Z</time>
      </trkpt>
      <trkpt lat="43.52573" lon="5.50434">
        <ele>228.4296875</ele>
        <time>2019-03-23T11:38:47Z</time>
      </trkpt>
      <trkpt lat="43.52577" lon="5.50435">
        <ele>228.91015625</ele>
        <time>2019-03-23T11:39:02Z</time>
      </trkpt>
      <trkpt lat="43.52584" lon="5.50439">
        <ele>229.8828125</ele>
        <time>2019-03-23T11:39:15Z</time>
      </trkpt>
      <trkpt lat="43.52592" lon="5.50438">
        <ele>231.3671875</ele>
        <time>2019-03-23T11:39:27Z</time>
      </trkpt>
      <trkpt lat="43.52601" lon="5.50442">
        <ele>232.6171875</ele>
        <time>2019-03-23T11:39:40Z</time>
      </trkpt>
      <trkpt lat="43.52608" lon="5.50445">
        <ele>233.64453125</ele>
        <time>2019-03-23T11:39:48Z</time>
      </trkpt>
      <trkpt lat="43.52616" lon="5.50444">
        <ele>235.1484375</ele>
        <time>2019-03-23T11:40:01Z</time>
      </trkpt>
      <trkpt lat="43.52618" lon="5.50427">
        <ele>237.28515625</ele>
        <time>2019-03-23T11:40:14Z</time>
      </trkpt>
      <trkpt lat="43.52626" lon="5.50432">
        <ele>238.0703125</ele>
        <time>2019-03-23T11:40:22Z</time>
      </trkpt>
      <trkpt lat="43.52634" lon="5.50435">
        <ele>239.28125</ele>
        <time>2019-03-23T11:40:34Z</time>
      </trkpt>
      <trkpt lat="43.52636" lon="5.50436">
        <ele>239.5703125</ele>
        <time>2019-03-23T11:40:36Z</time>
      </trkpt>
      <trkpt lat="43.5264" lon="5.50435">
        <ele>240.16796875</ele>
        <time>2019-03-23T11:40:40Z</time>
      </trkpt>
      <trkpt lat="43.52647" lon="5.50435">
        <ele>241.421875</ele>
        <time>2019-03-23T11:40:50Z</time>
      </trkpt>
      <trkpt lat="43.52662" lon="5.50436">
        <ele>244.15234375</ele>
        <time>2019-03-23T11:41:02Z</time>
      </trkpt>
      <trkpt lat="43.52673" lon="5.50436">
        <ele>246.25390625</ele>
        <time>2019-03-23T11:41:13Z</time>
      </trkpt>
      <trkpt lat="43.52673" lon="5.50437">
        <ele>246.37109375</ele>
        <time>2019-03-23T11:41:14Z</time>
      </trkpt>
      <trkpt lat="43.52677" lon="5.50441">
        <ele>247.140625</ele>
        <time>2019-03-23T11:41:24Z</time>
      </trkpt>
      <trkpt lat="43.52677" lon="5.50443">
        <ele>247.16015625</ele>
        <time>2019-03-23T11:41:42Z</time>
      </trkpt>
      <trkpt lat="43.5268" lon="5.50442">
        <ele>247.6953125</ele>
        <time>2019-03-23T11:42:00Z</time>
      </trkpt>
      <trkpt lat="43.52681" lon="5.50441">
        <ele>247.9765625</ele>
        <time>2019-03-23T11:42:25Z</time>
      </trkpt>
      <trkpt lat="43.52683" lon="5.50442">
        <ele>248.4140625</ele>
        <time>2019-03-23T11:42:37Z</time>
      </trkpt>
      <trkpt lat="43.52683" lon="5.50443">
        <ele>248.48828125</ele>
        <time>2019-03-23T11:42:38Z</time>
      </trkpt>
      <trkpt lat="43.52684" lon="5.50445">
        <ele>248.55859375</ele>
        <time>2019-03-23T11:42:41Z</time>
      </trkpt>
      <trkpt lat="43.52684" lon="5.50446">
        <ele>248.76171875</ele>
        <time>2019-03-23T11:42:43Z</time>
      </trkpt>
      <trkpt lat="43.5269" lon="5.5045">
        <ele>250.25</ele>
        <time>2019-03-23T11:42:50Z</time>
      </trkpt>
      <trkpt lat="43.52691" lon="5.5045">
        <ele>250.515625</ele>
        <time>2019-03-23T11:42:51Z</time>
      </trkpt>
      <trkpt lat="43.52696" lon="5.50453">
        <ele>251.72265625</ele>
        <time>2019-03-23T11:43:02Z</time>
      </trkpt>
      <trkpt lat="43.52706" lon="5.50457">
        <ele>254.2421875</ele>
        <time>2019-03-23T11:43:16Z</time>
      </trkpt>
      <trkpt lat="43.52715" lon="5.50459">
        <ele>256.75</ele>
        <time>2019-03-23T11:43:26Z</time>
      </trkpt>
      <trkpt lat="43.52724" lon="5.50462">
        <ele>259.30859375</ele>
        <time>2019-03-23T11:43:38Z</time>
      </trkpt>
      <trkpt lat="43.52725" lon="5.50461">
        <ele>259.5703125</ele>
        <time>2019-03-23T11:43:39Z</time>
      </trkpt>
      <trkpt lat="43.52732" lon="5.50455">
        <ele>261.5546875</ele>
        <time>2019-03-23T11:43:50Z</time>
      </trkpt>
      <trkpt lat="43.52735" lon="5.50451">
        <ele>262.43359375</ele>
        <time>2019-03-23T11:43:56Z</time>
      </trkpt>
      <trkpt lat="43.5274" lon="5.5044">
        <ele>264.09765625</ele>
        <time>2019-03-23T11:44:07Z</time>
      </trkpt>
      <trkpt lat="43.52748" lon="5.50427">
        <ele>266.42578125</ele>
        <time>2019-03-23T11:44:19Z</time>
      </trkpt>
      <trkpt lat="43.52742" lon="5.50418">
        <ele>263.921875</ele>
        <time>2019-03-23T11:44:41Z</time>
      </trkpt>
      <trkpt lat="43.52751" lon="5.50422">
        <ele>267.28515625</ele>
        <time>2019-03-23T11:44:57Z</time>
      </trkpt>
      <trkpt lat="43.52757" lon="5.5042">
        <ele>269.53515625</ele>
        <time>2019-03-23T11:45:08Z</time>
      </trkpt>
      <trkpt lat="43.52764" lon="5.5042">
        <ele>271.94140625</ele>
        <time>2019-03-23T11:45:18Z</time>
      </trkpt>
      <trkpt lat="43.52772" lon="5.50421">
        <ele>275.44140625</ele>
        <time>2019-03-23T11:45:31Z</time>
      </trkpt>
      <trkpt lat="43.52773" lon="5.50424">
        <ele>275.9609375</ele>
        <time>2019-03-23T11:45:43Z</time>
      </trkpt>
      <trkpt lat="43.52773" lon="5.50433">
        <ele>276.2734375</ele>
        <time>2019-03-23T11:45:54Z</time>
      </trkpt>
      <trkpt lat="43.52773" lon="5.50434">
        <ele>276.38671875</ele>
        <time>2019-03-23T11:45:55Z</time>
      </trkpt>
      <trkpt lat="43.52774" lon="5.5044">
        <ele>276.84375</ele>
        <time>2019-03-23T11:46:00Z</time>
      </trkpt>
      <trkpt lat="43.52774" lon="5.50442">
        <ele>277.15625</ele>
        <time>2019-03-23T11:46:01Z</time>
      </trkpt>
      <trkpt lat="43.52776" lon="5.50455">
        <ele>277.84765625</ele>
        <time>2019-03-23T11:46:09Z</time>
      </trkpt>
      <trkpt lat="43.52776" lon="5.50464">
        <ele>277.625</ele>
        <time>2019-03-23T11:46:19Z</time>
      </trkpt>
      <trkpt lat="43.5278" lon="5.50475">
        <ele>278.84765625</ele>
        <time>2019-03-23T11:46:36Z</time>
      </trkpt>
      <trkpt lat="43.52782" lon="5.50482">
        <ele>279.25</ele>
        <time>2019-03-23T11:46:44Z</time>
      </trkpt>
      <trkpt lat="43.52787" lon="5.50492">
        <ele>280.5859375</ele>
        <time>2019-03-23T11:46:55Z</time>
      </trkpt>
      <trkpt lat="43.52792" lon="5.50506">
        <ele>281.5234375</ele>
        <time>2019-03-23T11:47:08Z</time>
      </trkpt>
      <trkpt lat="43.52794" lon="5.5051">
        <ele>282.203125</ele>
        <time>2019-03-23T11:47:11Z</time>
      </trkpt>
      <trkpt lat="43.52798" lon="5.5052">
        <ele>283.515625</ele>
        <time>2019-03-23T11:47:23Z</time>
      </trkpt>
      <trkpt lat="43.52804" lon="5.5053">
        <ele>284.890625</ele>
        <time>2019-03-23T11:47:34Z</time>
      </trkpt>
      <trkpt lat="43.52808" lon="5.50539">
        <ele>285.45703125</ele>
        <time>2019-03-23T11:47:46Z</time>
      </trkpt>
      <trkpt lat="43.52809" lon="5.5054">
        <ele>285.43359375</ele>
        <time>2019-03-23T11:47:47Z</time>
      </trkpt>
      <trkpt lat="43.52816" lon="5.50555">
        <ele>285.953125</ele>
        <time>2019-03-23T11:48:01Z</time>
      </trkpt>
      <trkpt lat="43.52819" lon="5.50564">
        <ele>286.671875</ele>
        <time>2019-03-23T11:48:12Z</time>
      </trkpt>
      <trkpt lat="43.52821" lon="5.50569">
        <ele>287.31640625</ele>
        <time>2019-03-23T11:48:18Z</time>
      </trkpt>
      <trkpt lat="43.52829" lon="5.50577">
        <ele>288.81640625</ele>
        <time>2019-03-23T11:48:31Z</time>
      </trkpt>
      <trkpt lat="43.52838" lon="5.50585">
        <ele>289.87109375</ele>
        <time>2019-03-23T11:48:54Z</time>
      </trkpt>
      <trkpt lat="43.52841" lon="5.50589">
        <ele>290.125</ele>
        <time>2019-03-23T11:49:01Z</time>
      </trkpt>
      <trkpt lat="43.52849" lon="5.50598">
        <ele>290.21484375</ele>
        <time>2019-03-23T11:49:12Z</time>
      </trkpt>
      <trkpt lat="43.52857" lon="5.50607">
        <ele>289.9609375</ele>
        <time>2019-03-23T11:49:24Z</time>
      </trkpt>
      <trkpt lat="43.52865" lon="5.50617">
        <ele>289.55859375</ele>
        <time>2019-03-23T11:49:38Z</time>
      </trkpt>
      <trkpt lat="43.52871" lon="5.50625">
        <ele>289.16796875</ele>
        <time>2019-03-23T11:49:48Z</time>
      </trkpt>
      <trkpt lat="43.52872" lon="5.50628">
        <ele>288.82421875</ele>
        <time>2019-03-23T11:49:52Z</time>
      </trkpt>
      <trkpt lat="43.52872" lon="5.50635">
        <ele>288.171875</ele>
        <time>2019-03-23T11:49:58Z</time>
      </trkpt>
      <trkpt lat="43.52874" lon="5.50639">
        <ele>287.7734375</ele>
        <time>2019-03-23T11:50:00Z</time>
      </trkpt>
      <trkpt lat="43.52873" lon="5.50644">
        <ele>287.26953125</ele>
        <time>2019-03-23T11:50:04Z</time>
      </trkpt>
      <trkpt lat="43.52872" lon="5.50645">
        <ele>287.16015625</ele>
        <time>2019-03-23T11:50:05Z</time>
      </trkpt>
      <trkpt lat="43.52871" lon="5.50651">
        <ele>286.62890625</ele>
        <time>2019-03-23T11:50:11Z</time>
      </trkpt>
      <trkpt lat="43.52871" lon="5.50653">
        <ele>286.421875</ele>
        <time>2019-03-23T11:50:13Z</time>
      </trkpt>
      <trkpt lat="43.52873" lon="5.50663">
        <ele>285.3359375</ele>
        <time>2019-03-23T11:50:20Z</time>
      </trkpt>
      <trkpt lat="43.52874" lon="5.50667">
        <ele>284.7890625</ele>
        <time>2019-03-23T11:50:24Z</time>
      </trkpt>
      <trkpt lat="43.52875" lon="5.5067">
        <ele>284.453125</ele>
        <time>2019-03-23T11:50:26Z</time>
      </trkpt>
      <trkpt lat="43.52879" lon="5.50676">
        <ele>283.68359375</ele>
        <time>2019-03-23T11:50:31Z</time>
      </trkpt>
      <trkpt lat="43.52886" lon="5.50684">
        <ele>282.5</ele>
        <time>2019-03-23T11:50:41Z</time>
      </trkpt>
      <trkpt lat="43.52892" lon="5.50691">
        <ele>281.55078125</ele>
        <time>2019-03-23T11:50:51Z</time>
      </trkpt>
      <trkpt lat="43.52894" lon="5.50693">
        <ele>281.25</ele>
        <time>2019-03-23T11:50:53Z</time>
      </trkpt>
      <trkpt lat="43.52897" lon="5.50701">
        <ele>280.515625</ele>
        <time>2019-03-23T11:51:01Z</time>
      </trkpt>
      <trkpt lat="43.52898" lon="5.50702">
        <ele>280.39453125</ele>
        <time>2019-03-23T11:51:02Z</time>
      </trkpt>
      <trkpt lat="43.529" lon="5.50707">
        <ele>280.03125</ele>
        <time>2019-03-23T11:51:06Z</time>
      </trkpt>
      <trkpt lat="43.52907" lon="5.50722">
        <ele>278.640625</ele>
        <time>2019-03-23T11:51:20Z</time>
      </trkpt>
      <trkpt lat="43.52913" lon="5.50737">
        <ele>277.67578125</ele>
        <time>2019-03-23T11:51:30Z</time>
      </trkpt>
      <trkpt lat="43.52919" lon="5.50744">
        <ele>277.00390625</ele>
        <time>2019-03-23T11:51:38Z</time>
      </trkpt>
      <trkpt lat="43.52924" lon="5.50748">
        <ele>276.484375</ele>
        <time>2019-03-23T11:51:40Z</time>
      </trkpt>
      <trkpt lat="43.52935" lon="5.50752">
        <ele>275.30859375</ele>
        <time>2019-03-23T11:51:48Z</time>
      </trkpt>
      <trkpt lat="43.52936" lon="5.50751">
        <ele>275.03515625</ele>
        <time>2019-03-23T11:51:49Z</time>
      </trkpt>
      <trkpt lat="43.52937" lon="5.50751">
        <ele>274.83203125</ele>
        <time>2019-03-23T11:51:50Z</time>
      </trkpt>
      <trkpt lat="43.5294" lon="5.50748">
        <ele>274.0703125</ele>
        <time>2019-03-23T11:51:54Z</time>
      </trkpt>
      <trkpt lat="43.52951" lon="5.50745">
        <ele>271.8828125</ele>
        <time>2019-03-23T11:52:06Z</time>
      </trkpt>
      <trkpt lat="43.52957" lon="5.5074">
        <ele>270.953125</ele>
        <time>2019-03-23T11:52:17Z</time>
      </trkpt>
      <trkpt lat="43.52958" lon="5.5074">
        <ele>270.7265625</ele>
        <time>2019-03-23T11:52:18Z</time>
      </trkpt>
      <trkpt lat="43.52964" lon="5.50738">
        <ele>269.8828125</ele>
        <time>2019-03-23T11:52:24Z</time>
      </trkpt>
      <trkpt lat="43.52966" lon="5.50736">
        <ele>269.71875</ele>
        <time>2019-03-23T11:52:27Z</time>
      </trkpt>
      <trkpt lat="43.52973" lon="5.50736">
        <ele>268.71484375</ele>
        <time>2019-03-23T11:52:37Z</time>
      </trkpt>
      <trkpt lat="43.5298" lon="5.50738">
        <ele>267.453125</ele>
        <time>2019-03-23T11:52:44Z</time>
      </trkpt>
      <trkpt lat="43.52993" lon="5.50748">
        <ele>263.78515625</ele>
        <time>2019-03-23T11:52:56Z</time>
      </trkpt>
      <trkpt lat="43.53005" lon="5.50753">
        <ele>261.53515625</ele>
        <time>2019-03-23T11:53:08Z</time>
      </trkpt>
      <trkpt lat="43.53021" lon="5.50756">
        <ele>258.9609375</ele>
        <time>2019-03-23T11:53:21Z</time>
      </trkpt>
      <trkpt lat="43.5303" lon="5.50753">
        <ele>258.71875</ele>
        <time>2019-03-23T11:53:29Z</time>
      </trkpt>
      <trkpt lat="43.53041" lon="5.50754">
        <ele>258</ele>
        <time>2019-03-23T11:53:40Z</time>
      </trkpt>
      <trkpt lat="43.53044" lon="5.50755">
        <ele>257.6484375</ele>
        <time>2019-03-23T11:53:43Z</time>
      </trkpt>
      <trkpt lat="43.53052" lon="5.50759">
        <ele>256.55859375</ele>
        <time>2019-03-23T11:53:51Z</time>
      </trkpt>
      <trkpt lat="43.53053" lon="5.5076">
        <ele>256.31640625</ele>
        <time>2019-03-23T11:53:52Z</time>
      </trkpt>
      <trkpt lat="43.5306" lon="5.50769">
        <ele>253.9765625</ele>
        <time>2019-03-23T11:54:03Z</time>
      </trkpt>
      <trkpt lat="43.53068" lon="5.50779">
        <ele>251.53515625</ele>
        <time>2019-03-23T11:54:14Z</time>
      </trkpt>
      <trkpt lat="43.53072" lon="5.50789">
        <ele>249.50390625</ele>
        <time>2019-03-23T11:54:25Z</time>
      </trkpt>
      <trkpt lat="43.53078" lon="5.508">
        <ele>246.94921875</ele>
        <time>2019-03-23T11:54:36Z</time>
      </trkpt>
      <trkpt lat="43.53079" lon="5.50802">
        <ele>246.6328125</ele>
        <time>2019-03-23T11:54:38Z</time>
      </trkpt>
      <trkpt lat="43.53087" lon="5.50811">
        <ele>244.95703125</ele>
        <time>2019-03-23T11:54:49Z</time>
      </trkpt>
      <trkpt lat="43.53091" lon="5.50815">
        <ele>244.125</ele>
        <time>2019-03-23T11:54:52Z</time>
      </trkpt>
      <trkpt lat="43.53093" lon="5.50817">
        <ele>243.6171875</ele>
        <time>2019-03-23T11:54:53Z</time>
      </trkpt>
      <trkpt lat="43.53098" lon="5.50819">
        <ele>242.67578125</ele>
        <time>2019-03-23T11:55:01Z</time>
      </trkpt>
      <trkpt lat="43.53102" lon="5.50823">
        <ele>241.6640625</ele>
        <time>2019-03-23T11:55:07Z</time>
      </trkpt>
      <trkpt lat="43.53107" lon="5.50828">
        <ele>240.15234375</ele>
        <time>2019-03-23T11:55:15Z</time>
      </trkpt>
      <trkpt lat="43.53111" lon="5.50832">
        <ele>238.921875</ele>
        <time>2019-03-23T11:55:24Z</time>
      </trkpt>
      <trkpt lat="43.53118" lon="5.50838">
        <ele>237.171875</ele>
        <time>2019-03-23T11:55:38Z</time>
      </trkpt>
      <trkpt lat="43.53128" lon="5.50842">
        <ele>235.0546875</ele>
        <time>2019-03-23T11:55:52Z</time>
      </trkpt>
      <trkpt lat="43.53135" lon="5.50844">
        <ele>233.8046875</ele>
        <time>2019-03-23T11:55:59Z</time>
      </trkpt>
      <trkpt lat="43.53136" lon="5.50845">
        <ele>233.47265625</ele>
        <time>2019-03-23T11:56:01Z</time>
      </trkpt>
      <trkpt lat="43.53139" lon="5.50848">
        <ele>232.5390625</ele>
        <time>2019-03-23T11:56:06Z</time>
      </trkpt>
      <trkpt lat="43.53148" lon="5.50858">
        <ele>229.05078125</ele>
        <time>2019-03-23T11:56:19Z</time>
      </trkpt>
      <trkpt lat="43.53159" lon="5.50865">
        <ele>225.6875</ele>
        <time>2019-03-23T11:56:33Z</time>
      </trkpt>
      <trkpt lat="43.53163" lon="5.50869">
        <ele>224.19921875</ele>
        <time>2019-03-23T11:56:39Z</time>
      </trkpt>
      <trkpt lat="43.53168" lon="5.50871">
        <ele>222.83984375</ele>
        <time>2019-03-23T11:56:45Z</time>
      </trkpt>
      <trkpt lat="43.53178" lon="5.50873">
        <ele>220.96875</ele>
        <time>2019-03-23T11:56:53Z</time>
      </trkpt>
      <trkpt lat="43.53194" lon="5.50874">
        <ele>218.73828125</ele>
        <time>2019-03-23T11:57:04Z</time>
      </trkpt>
      <trkpt lat="43.53208" lon="5.50873">
        <ele>217.625</ele>
        <time>2019-03-23T11:57:18Z</time>
      </trkpt>
      <trkpt lat="43.53208" lon="5.50873">
        <ele>217.52734375</ele>
        <time>2019-03-23T11:57:19Z</time>
      </trkpt>
      <trkpt lat="43.53213" lon="5.50874">
        <ele>217.23828125</ele>
        <time>2019-03-23T11:57:23Z</time>
      </trkpt>
      <trkpt lat="43.53216" lon="5.50874">
        <ele>217.1484375</ele>
        <time>2019-03-23T11:57:25Z</time>
      </trkpt>
      <trkpt lat="43.53223" lon="5.50874">
        <ele>217.05859375</ele>
        <time>2019-03-23T11:57:35Z</time>
      </trkpt>
      <trkpt lat="43.53223" lon="5.50874">
        <ele>217.10546875</ele>
        <time>2019-03-23T11:57:51Z</time>
      </trkpt>
      <trkpt lat="43.53227" lon="5.50873">
        <ele>217.1015625</ele>
        <time>2019-03-23T11:58:16Z</time>
      </trkpt>
      <trkpt lat="43.53235" lon="5.50874">
        <ele>216.8828125</ele>
        <time>2019-03-23T11:58:26Z</time>
      </trkpt>
      <trkpt lat="43.53243" lon="5.50874">
        <ele>217.96875</ele>
        <time>2019-03-23T11:58:35Z</time>
      </trkpt>
      <trkpt lat="43.53245" lon="5.50876">
        <ele>218.19921875</ele>
        <time>2019-03-23T11:58:37Z</time>
      </trkpt>
      <trkpt lat="43.5325" lon="5.50876">
        <ele>218.9609375</ele>
        <time>2019-03-23T11:58:41Z</time>
      </trkpt>
      <trkpt lat="43.5326" lon="5.50872">
        <ele>221.234375</ele>
        <time>2019-03-23T11:58:51Z</time>
      </trkpt>
      <trkpt lat="43.53264" lon="5.50869">
        <ele>222.26171875</ele>
        <time>2019-03-23T11:58:56Z</time>
      </trkpt>
      <trkpt lat="43.53268" lon="5.50865">
        <ele>223.45703125</ele>
        <time>2019-03-23T11:59:00Z</time>
      </trkpt>
      <trkpt lat="43.53275" lon="5.50857">
        <ele>225.92578125</ele>
        <time>2019-03-23T11:59:12Z</time>
      </trkpt>
      <trkpt lat="43.5328" lon="5.50859">
        <ele>226.921875</ele>
        <time>2019-03-23T11:59:24Z</time>
      </trkpt>
      <trkpt lat="43.53284" lon="5.50849">
        <ele>228.51953125</ele>
        <time>2019-03-23T11:59:36Z</time>
      </trkpt>
      <trkpt lat="43.53278" lon="5.50844">
        <ele>227.1953125</ele>
        <time>2019-03-23T11:59:44Z</time>
      </trkpt>
      <trkpt lat="43.53271" lon="5.50837">
        <ele>225.9765625</ele>
        <time>2019-03-23T12:00:10Z</time>
      </trkpt>
      <trkpt lat="43.5327" lon="5.50846">
        <ele>225.21484375</ele>
        <time>2019-03-23T12:00:35Z</time>
      </trkpt>
      <trkpt lat="43.53269" lon="5.50848">
        <ele>225.03125</ele>
        <time>2019-03-23T12:01:14Z</time>
      </trkpt>
      <trkpt lat="43.53274" lon="5.50854">
        <ele>225.67578125</ele>
        <time>2019-03-23T12:01:39Z</time>
      </trkpt>
      <trkpt lat="43.53272" lon="5.50851">
        <ele>225.5</ele>
        <time>2019-03-23T12:02:01Z</time>
      </trkpt>
      <trkpt lat="43.5327" lon="5.50848">
        <ele>225.203125</ele>
        <time>2019-03-23T12:02:33Z</time>
      </trkpt>
      <trkpt lat="43.5327" lon="5.50845">
        <ele>225.41796875</ele>
        <time>2019-03-23T12:03:06Z</time>
      </trkpt>
      <trkpt lat="43.53265" lon="5.50845">
        <ele>224.1328125</ele>
        <time>2019-03-23T12:03:34Z</time>
      </trkpt>
      <trkpt lat="43.53269" lon="5.50854">
        <ele>224.47265625</ele>
        <time>2019-03-23T12:04:01Z</time>
      </trkpt>
      <trkpt lat="43.53269" lon="5.50852">
        <ele>224.52734375</ele>
        <time>2019-03-23T12:04:33Z</time>
      </trkpt>
      <trkpt lat="43.53269" lon="5.50856">
        <ele>224.5078125</ele>
        <time>2019-03-23T12:04:49Z</time>
      </trkpt>
      <trkpt lat="43.5327" lon="5.50862">
        <ele>224.17578125</ele>
        <time>2019-03-23T12:05:14Z</time>
      </trkpt>
      <trkpt lat="43.53272" lon="5.50852">
        <ele>225.359375</ele>
        <time>2019-03-23T12:05:41Z</time>
      </trkpt>
      <trkpt lat="43.53276" lon="5.50844">
        <ele>226.86328125</ele>
        <time>2019-03-23T12:06:09Z</time>
      </trkpt>
      <trkpt lat="43.53271" lon="5.50847">
        <ele>225.421875</ele>
        <time>2019-03-23T12:06:30Z</time>
      </trkpt>
      <trkpt lat="43.5327" lon="5.50848">
        <ele>225.234375</ele>
        <time>2019-03-23T12:06:52Z</time>
      </trkpt>
      <trkpt lat="43.53269" lon="5.50849">
        <ele>224.90234375</ele>
        <time>2019-03-23T12:07:21Z</time>
      </trkpt>
      <trkpt lat="43.53271" lon="5.50848">
        <ele>225.3125</ele>
        <time>2019-03-23T12:07:47Z</time>
      </trkpt>
      <trkpt lat="43.53268" lon="5.50846">
        <ele>224.81640625</ele>
        <time>2019-03-23T12:08:27Z</time>
      </trkpt>
      <trkpt lat="43.53266" lon="5.50852">
        <ele>223.79296875</ele>
        <time>2019-03-23T12:08:55Z</time>
      </trkpt>
      <trkpt lat="43.53272" lon="5.50848">
        <ele>225.49609375</ele>
        <time>2019-03-23T12:09:24Z</time>
      </trkpt>
      <trkpt lat="43.53264" lon="5.50852">
        <ele>223.5</ele>
        <time>2019-03-23T12:09:56Z</time>
      </trkpt>
      <trkpt lat="43.53265" lon="5.50855">
        <ele>223.53515625</ele>
        <time>2019-03-23T12:10:19Z</time>
      </trkpt>
      <trkpt lat="43.53268" lon="5.5085">
        <ele>224.53515625</ele>
        <time>2019-03-23T12:10:46Z</time>
      </trkpt>
      <trkpt lat="43.5327" lon="5.50855">
        <ele>224.6796875</ele>
        <time>2019-03-23T12:11:28Z</time>
      </trkpt>
      <trkpt lat="43.5327" lon="5.50858">
        <ele>224.4453125</ele>
        <time>2019-03-23T12:11:54Z</time>
      </trkpt>
      <trkpt lat="43.53271" lon="5.50852">
        <ele>225.25390625</ele>
        <time>2019-03-23T12:12:24Z</time>
      </trkpt>
      <trkpt lat="43.5327" lon="5.50853">
        <ele>224.87890625</ele>
        <time>2019-03-23T12:12:52Z</time>
      </trkpt>
      <trkpt lat="43.53274" lon="5.50852">
        <ele>225.80078125</ele>
        <time>2019-03-23T12:13:27Z</time>
      </trkpt>
      <trkpt lat="43.53276" lon="5.50849">
        <ele>226.4375</ele>
        <time>2019-03-23T12:13:50Z</time>
      </trkpt>
      <trkpt lat="43.53275" lon="5.50853">
        <ele>225.98828125</ele>
        <time>2019-03-23T12:14:24Z</time>
      </trkpt>
      <trkpt lat="43.53273" lon="5.50853">
        <ele>225.578125</ele>
        <time>2019-03-23T12:15:02Z</time>
      </trkpt>
      <trkpt lat="43.53274" lon="5.50856">
        <ele>225.69921875</ele>
        <time>2019-03-23T12:15:29Z</time>
      </trkpt>
      <trkpt lat="43.53278" lon="5.50852">
        <ele>226.74609375</ele>
        <time>2019-03-23T12:15:55Z</time>
      </trkpt>
      <trkpt lat="43.53276" lon="5.50853">
        <ele>226.171875</ele>
        <time>2019-03-23T12:16:23Z</time>
      </trkpt>
      <trkpt lat="43.53277" lon="5.50849">
        <ele>226.76953125</ele>
        <time>2019-03-23T12:16:49Z</time>
      </trkpt>
      <trkpt lat="43.53278" lon="5.50851">
        <ele>226.953125</ele>
        <time>2019-03-23T12:17:25Z</time>
      </trkpt>
      <trkpt lat="43.53279" lon="5.50848">
        <ele>227.390625</ele>
        <time>2019-03-23T12:17:46Z</time>
      </trkpt>
      <trkpt lat="43.53278" lon="5.5085">
        <ele>226.83984375</ele>
        <time>2019-03-23T12:18:10Z</time>
      </trkpt>
      <trkpt lat="43.53273" lon="5.50851">
        <ele>225.74609375</ele>
        <time>2019-03-23T12:18:39Z</time>
      </trkpt>
      <trkpt lat="43.53271" lon="5.50853">
        <ele>225.1953125</ele>
        <time>2019-03-23T12:19:15Z</time>
      </trkpt>
      <trkpt lat="43.53272" lon="5.50853">
        <ele>225.28515625</ele>
        <time>2019-03-23T12:19:37Z</time>
      </trkpt>
      <trkpt lat="43.53271" lon="5.50852">
        <ele>225.23046875</ele>
        <time>2019-03-23T12:19:54Z</time>
      </trkpt>
      <trkpt lat="43.53276" lon="5.50853">
        <ele>226.2265625</ele>
        <time>2019-03-23T12:20:24Z</time>
      </trkpt>
      <trkpt lat="43.53274" lon="5.50849">
        <ele>226.04296875</ele>
        <time>2019-03-23T12:20:51Z</time>
      </trkpt>
      <trkpt lat="43.53275" lon="5.50849">
        <ele>226.19140625</ele>
        <time>2019-03-23T12:21:16Z</time>
      </trkpt>
      <trkpt lat="43.53275" lon="5.50849">
        <ele>226.296875</ele>
        <time>2019-03-23T12:21:47Z</time>
      </trkpt>
      <trkpt lat="43.53281" lon="5.50847">
        <ele>227.90625</ele>
        <time>2019-03-23T12:22:08Z</time>
      </trkpt>
      <trkpt lat="43.5328" lon="5.50846">
        <ele>227.546875</ele>
        <time>2019-03-23T12:22:35Z</time>
      </trkpt>
      <trkpt lat="43.53288" lon="5.50844">
        <ele>229.66796875</ele>
        <time>2019-03-23T12:23:03Z</time>
      </trkpt>
      <trkpt lat="43.53291" lon="5.50845">
        <ele>230.1875</ele>
        <time>2019-03-23T12:23:23Z</time>
      </trkpt>
      <trkpt lat="43.53284" lon="5.50846">
        <ele>228.6171875</ele>
        <time>2019-03-23T12:23:50Z</time>
      </trkpt>
      <trkpt lat="43.53283" lon="5.50841">
        <ele>228.625</ele>
        <time>2019-03-23T12:24:18Z</time>
      </trkpt>
      <trkpt lat="43.53286" lon="5.50841">
        <ele>229.26953125</ele>
        <time>2019-03-23T12:24:34Z</time>
      </trkpt>
      <trkpt lat="43.53273" lon="5.50843">
        <ele>226.16015625</ele>
        <time>2019-03-23T12:24:59Z</time>
      </trkpt>
      <trkpt lat="43.53274" lon="5.50845">
        <ele>226.3515625</ele>
        <time>2019-03-23T12:25:28Z</time>
      </trkpt>
      <trkpt lat="43.53278" lon="5.5085">
        <ele>227.015625</ele>
        <time>2019-03-23T12:25:55Z</time>
      </trkpt>
      <trkpt lat="43.53278" lon="5.5085">
        <ele>226.99609375</ele>
        <time>2019-03-23T12:26:19Z</time>
      </trkpt>
      <trkpt lat="43.53279" lon="5.50842">
        <ele>227.52734375</ele>
        <time>2019-03-23T12:26:52Z</time>
      </trkpt>
      <trkpt lat="43.53276" lon="5.50846">
        <ele>226.70703125</ele>
        <time>2019-03-23T12:27:13Z</time>
      </trkpt>
      <trkpt lat="43.53275" lon="5.50847">
        <ele>226.35546875</ele>
        <time>2019-03-23T12:27:32Z</time>
      </trkpt>
      <trkpt lat="43.53276" lon="5.50846">
        <ele>226.62109375</ele>
        <time>2019-03-23T12:27:56Z</time>
      </trkpt>
      <trkpt lat="43.53276" lon="5.50846">
        <ele>226.72265625</ele>
        <time>2019-03-23T12:28:26Z</time>
      </trkpt>
      <trkpt lat="43.53281" lon="5.50847">
        <ele>227.72265625</ele>
        <time>2019-03-23T12:28:44Z</time>
      </trkpt>
      <trkpt lat="43.5328" lon="5.50846">
        <ele>227.72265625</ele>
        <time>2019-03-23T12:29:07Z</time>
      </trkpt>
      <trkpt lat="43.53291" lon="5.50843">
        <ele>230.28515625</ele>
        <time>2019-03-23T12:29:32Z</time>
      </trkpt>
      <trkpt lat="43.53286" lon="5.50845">
        <ele>229.0546875</ele>
        <time>2019-03-23T12:29:49Z</time>
      </trkpt>
      <trkpt lat="43.53285" lon="5.50844">
        <ele>228.96875</ele>
        <time>2019-03-23T12:30:23Z</time>
      </trkpt>
      <trkpt lat="43.53283" lon="5.50844">
        <ele>228.50390625</ele>
        <time>2019-03-23T12:30:47Z</time>
      </trkpt>
      <trkpt lat="43.53284" lon="5.50845">
        <ele>228.6015625</ele>
        <time>2019-03-23T12:31:10Z</time>
      </trkpt>
      <trkpt lat="43.53285" lon="5.50846">
        <ele>228.921875</ele>
        <time>2019-03-23T12:31:41Z</time>
      </trkpt>
      <trkpt lat="43.53287" lon="5.50843">
        <ele>229.4375</ele>
        <time>2019-03-23T12:32:04Z</time>
      </trkpt>
      <trkpt lat="43.53285" lon="5.50846">
        <ele>228.78515625</ele>
        <time>2019-03-23T12:32:28Z</time>
      </trkpt>
      <trkpt lat="43.53282" lon="5.50846">
        <ele>227.9921875</ele>
        <time>2019-03-23T12:32:56Z</time>
      </trkpt>
      <trkpt lat="43.5328" lon="5.50845">
        <ele>227.7265625</ele>
        <time>2019-03-23T12:33:15Z</time>
      </trkpt>
      <trkpt lat="43.53282" lon="5.50845">
        <ele>228.109375</ele>
        <time>2019-03-23T12:33:42Z</time>
      </trkpt>
      <trkpt lat="43.53275" lon="5.50845">
        <ele>226.5</ele>
        <time>2019-03-23T12:34:02Z</time>
      </trkpt>
      <trkpt lat="43.53274" lon="5.50847">
        <ele>226.1796875</ele>
        <time>2019-03-23T12:34:29Z</time>
      </trkpt>
      <trkpt lat="43.53277" lon="5.5085">
        <ele>226.703125</ele>
        <time>2019-03-23T12:34:52Z</time>
      </trkpt>
      <trkpt lat="43.5328" lon="5.5085">
        <ele>227.36328125</ele>
        <time>2019-03-23T12:35:14Z</time>
      </trkpt>
      <trkpt lat="43.53278" lon="5.50853">
        <ele>226.9140625</ele>
        <time>2019-03-23T12:35:39Z</time>
      </trkpt>
      <trkpt lat="43.53278" lon="5.5085">
        <ele>226.8671875</ele>
        <time>2019-03-23T12:36:06Z</time>
      </trkpt>
      <trkpt lat="43.5328" lon="5.50848">
        <ele>227.49609375</ele>
        <time>2019-03-23T12:36:38Z</time>
      </trkpt>
      <trkpt lat="43.53279" lon="5.50851">
        <ele>227.1484375</ele>
        <time>2019-03-23T12:37:11Z</time>
      </trkpt>
      <trkpt lat="43.53282" lon="5.50848">
        <ele>228.08984375</ele>
        <time>2019-03-23T12:37:35Z</time>
      </trkpt>
      <trkpt lat="43.53276" lon="5.50843">
        <ele>226.8515625</ele>
        <time>2019-03-23T12:37:55Z</time>
      </trkpt>
      <trkpt lat="43.53269" lon="5.50843">
        <ele>225.1171875</ele>
        <time>2019-03-23T12:38:34Z</time>
      </trkpt>
      <trkpt lat="43.5327" lon="5.50845">
        <ele>225.19140625</ele>
        <time>2019-03-23T12:39:05Z</time>
      </trkpt>
      <trkpt lat="43.53273" lon="5.50847">
        <ele>225.94140625</ele>
        <time>2019-03-23T12:39:30Z</time>
      </trkpt>
      <trkpt lat="43.5327" lon="5.50845">
        <ele>225.359375</ele>
        <time>2019-03-23T12:39:57Z</time>
      </trkpt>
      <trkpt lat="43.53265" lon="5.50845">
        <ele>224.109375</ele>
        <time>2019-03-23T12:40:23Z</time>
      </trkpt>
      <trkpt lat="43.53261" lon="5.50843">
        <ele>223.8671875</ele>
        <time>2019-03-23T12:40:44Z</time>
      </trkpt>
      <trkpt lat="43.53268" lon="5.50839">
        <ele>225.28515625</ele>
        <time>2019-03-23T12:41:14Z</time>
      </trkpt>
      <trkpt lat="43.53266" lon="5.50841">
        <ele>224.74609375</ele>
        <time>2019-03-23T12:41:39Z</time>
      </trkpt>
      <trkpt lat="43.53268" lon="5.50839">
        <ele>225.265625</ele>
        <time>2019-03-23T12:41:58Z</time>
      </trkpt>
      <trkpt lat="43.53267" lon="5.50839">
        <ele>225.01953125</ele>
        <time>2019-03-23T12:42:18Z</time>
      </trkpt>
      <trkpt lat="43.53266" lon="5.50836">
        <ele>225</ele>
        <time>2019-03-23T12:42:47Z</time>
      </trkpt>
      <trkpt lat="43.53269" lon="5.50839">
        <ele>225.4375</ele>
        <time>2019-03-23T12:43:18Z</time>
      </trkpt>
      <trkpt lat="43.5327" lon="5.50841">
        <ele>225.53125</ele>
        <time>2019-03-23T12:43:45Z</time>
      </trkpt>
      <trkpt lat="43.53266" lon="5.50841">
        <ele>224.64453125</ele>
        <time>2019-03-23T12:44:03Z</time>
      </trkpt>
      <trkpt lat="43.53268" lon="5.50846">
        <ele>224.75390625</ele>
        <time>2019-03-23T12:44:34Z</time>
      </trkpt>
      <trkpt lat="43.53271" lon="5.50845">
        <ele>225.67578125</ele>
        <time>2019-03-23T12:45:05Z</time>
      </trkpt>
      <trkpt lat="43.53272" lon="5.50841">
        <ele>225.98046875</ele>
        <time>2019-03-23T12:45:34Z</time>
      </trkpt>
      <trkpt lat="43.53272" lon="5.50842">
        <ele>225.98828125</ele>
        <time>2019-03-23T12:46:00Z</time>
      </trkpt>
      <trkpt lat="43.53271" lon="5.50847">
        <ele>225.42578125</ele>
        <time>2019-03-23T12:46:29Z</time>
      </trkpt>
      <trkpt lat="43.53269" lon="5.50846">
        <ele>225.10546875</ele>
        <time>2019-03-23T12:46:52Z</time>
      </trkpt>
      <trkpt lat="43.53261" lon="5.50845">
        <ele>223.66796875</ele>
        <time>2019-03-23T12:47:11Z</time>
      </trkpt>
      <trkpt lat="43.53269" lon="5.50841">
        <ele>225.3671875</ele>
        <time>2019-03-23T12:47:48Z</time>
      </trkpt>
      <trkpt lat="43.53273" lon="5.50841">
        <ele>226.3671875</ele>
        <time>2019-03-23T12:48:13Z</time>
      </trkpt>
      <trkpt lat="43.53276" lon="5.50843">
        <ele>226.96484375</ele>
        <time>2019-03-23T12:48:38Z</time>
      </trkpt>
      <trkpt lat="43.53277" lon="5.50842">
        <ele>227.16015625</ele>
        <time>2019-03-23T12:49:16Z</time>
      </trkpt>
      <trkpt lat="43.53273" lon="5.50847">
        <ele>226.0234375</ele>
        <time>2019-03-23T12:49:37Z</time>
      </trkpt>
      <trkpt lat="43.53269" lon="5.50844">
        <ele>225.20703125</ele>
        <time>2019-03-23T12:50:13Z</time>
      </trkpt>
      <trkpt lat="43.5327" lon="5.50845">
        <ele>225.40234375</ele>
        <time>2019-03-23T12:50:29Z</time>
      </trkpt>
      <trkpt lat="43.53272" lon="5.50843">
        <ele>226.0390625</ele>
        <time>2019-03-23T12:50:51Z</time>
      </trkpt>
      <trkpt lat="43.53271" lon="5.50844">
        <ele>225.51953125</ele>
        <time>2019-03-23T12:51:13Z</time>
      </trkpt>
      <trkpt lat="43.53271" lon="5.50843">
        <ele>225.6171875</ele>
        <time>2019-03-23T12:51:35Z</time>
      </trkpt>
      <trkpt lat="43.53272" lon="5.5084">
        <ele>226.1171875</ele>
        <time>2019-03-23T12:52:07Z</time>
      </trkpt>
      <trkpt lat="43.53269" lon="5.5084">
        <ele>225.375</ele>
        <time>2019-03-23T12:52:21Z</time>
      </trkpt>
      <trkpt lat="43.53272" lon="5.50843">
        <ele>225.875</ele>
        <time>2019-03-23T12:52:55Z</time>
      </trkpt>
      <trkpt lat="43.53273" lon="5.50841">
        <ele>226.3515625</ele>
        <time>2019-03-23T12:53:22Z</time>
      </trkpt>
      <trkpt lat="43.53276" lon="5.50841">
        <ele>227.0078125</ele>
        <time>2019-03-23T12:53:41Z</time>
      </trkpt>
      <trkpt lat="43.53272" lon="5.50842">
        <ele>226.0546875</ele>
        <time>2019-03-23T12:54:13Z</time>
      </trkpt>
      <trkpt lat="43.53278" lon="5.50846">
        <ele>227.265625</ele>
        <time>2019-03-23T12:54:47Z</time>
      </trkpt>
      <trkpt lat="43.53278" lon="5.50845">
        <ele>227.1484375</ele>
        <time>2019-03-23T12:55:09Z</time>
      </trkpt>
      <trkpt lat="43.53277" lon="5.5085">
        <ele>226.71484375</ele>
        <time>2019-03-23T12:55:34Z</time>
      </trkpt>
      <trkpt lat="43.5328" lon="5.50845">
        <ele>227.65625</ele>
        <time>2019-03-23T12:56:01Z</time>
      </trkpt>
      <trkpt lat="43.53279" lon="5.50848">
        <ele>227.32421875</ele>
        <time>2019-03-23T12:56:30Z</time>
      </trkpt>
      <trkpt lat="43.53281" lon="5.50843">
        <ele>228.0234375</ele>
        <time>2019-03-23T12:57:06Z</time>
      </trkpt>
      <trkpt lat="43.53279" lon="5.50844">
        <ele>227.57421875</ele>
        <time>2019-03-23T12:57:29Z</time>
      </trkpt>
      <trkpt lat="43.53281" lon="5.50846">
        <ele>227.765625</ele>
        <time>2019-03-23T12:58:05Z</time>
      </trkpt>
      <trkpt lat="43.53277" lon="5.50842">
        <ele>227.11328125</ele>
        <time>2019-03-23T12:58:31Z</time>
      </trkpt>
      <trkpt lat="43.53278" lon="5.50841">
        <ele>227.3359375</ele>
        <time>2019-03-23T12:59:03Z</time>
      </trkpt>
      <trkpt lat="43.53279" lon="5.50847">
        <ele>227.28515625</ele>
        <time>2019-03-23T12:59:32Z</time>
      </trkpt>
      <trkpt lat="43.53284" lon="5.50846">
        <ele>228.59765625</ele>
        <time>2019-03-23T13:00:00Z</time>
      </trkpt>
      <trkpt lat="43.53281" lon="5.50844">
        <ele>228.01171875</ele>
        <time>2019-03-23T13:00:23Z</time>
      </trkpt>
      <trkpt lat="43.5328" lon="5.50847">
        <ele>227.51953125</ele>
        <time>2019-03-23T13:00:54Z</time>
      </trkpt>
      <trkpt lat="43.53276" lon="5.50853">
        <ele>226.21484375</ele>
        <time>2019-03-23T13:01:22Z</time>
      </trkpt>
      <trkpt lat="43.53283" lon="5.50849">
        <ele>228.09765625</ele>
        <time>2019-03-23T13:01:43Z</time>
      </trkpt>
      <trkpt lat="43.53276" lon="5.5085">
        <ele>226.546875</ele>
        <time>2019-03-23T13:01:59Z</time>
      </trkpt>
      <trkpt lat="43.53274" lon="5.5085">
        <ele>225.93359375</ele>
        <time>2019-03-23T13:02:13Z</time>
      </trkpt>
      <trkpt lat="43.53274" lon="5.5085">
        <ele>225.9140625</ele>
        <time>2019-03-23T13:02:14Z</time>
      </trkpt>
      <trkpt lat="43.53274" lon="5.50849">
        <ele>226.0625</ele>
        <time>2019-03-23T13:02:15Z</time>
      </trkpt>
      <trkpt lat="43.53274" lon="5.50848">
        <ele>226.203125</ele>
        <time>2019-03-23T13:02:16Z</time>
      </trkpt>
      <trkpt lat="43.53283" lon="5.50846">
        <ele>228.23046875</ele>
        <time>2019-03-23T13:02:50Z</time>
      </trkpt>
      <trkpt lat="43.53279" lon="5.50852">
        <ele>227.06640625</ele>
        <time>2019-03-23T13:03:05Z</time>
      </trkpt>
      <trkpt lat="43.53278" lon="5.50851">
        <ele>226.77734375</ele>
        <time>2019-03-23T13:03:24Z</time>
      </trkpt>
      <trkpt lat="43.53275" lon="5.5085">
        <ele>226.12109375</ele>
        <time>2019-03-23T13:03:35Z</time>
      </trkpt>
      <trkpt lat="43.53273" lon="5.50852">
        <ele>225.5234375</ele>
        <time>2019-03-23T13:03:50Z</time>
      </trkpt>
      <trkpt lat="43.53272" lon="5.50862">
        <ele>224.87890625</ele>
        <time>2019-03-23T13:04:03Z</time>
      </trkpt>
      <trkpt lat="43.53273" lon="5.50865">
        <ele>224.8828125</ele>
        <time>2019-03-23T13:04:14Z</time>
      </trkpt>
      <trkpt lat="43.53275" lon="5.5087">
        <ele>225.1484375</ele>
        <time>2019-03-23T13:04:23Z</time>
      </trkpt>
      <trkpt lat="43.53277" lon="5.50878">
        <ele>225.1796875</ele>
        <time>2019-03-23T13:04:36Z</time>
      </trkpt>
      <trkpt lat="43.53279" lon="5.50887">
        <ele>225.2421875</ele>
        <time>2019-03-23T13:04:47Z</time>
      </trkpt>
      <trkpt lat="43.5328" lon="5.50897">
        <ele>225.22265625</ele>
        <time>2019-03-23T13:05:00Z</time>
      </trkpt>
      <trkpt lat="43.53282" lon="5.50905">
        <ele>225.8046875</ele>
        <time>2019-03-23T13:05:12Z</time>
      </trkpt>
      <trkpt lat="43.53284" lon="5.50913">
        <ele>225.93359375</ele>
        <time>2019-03-23T13:05:21Z</time>
      </trkpt>
      <trkpt lat="43.53284" lon="5.50915">
        <ele>225.984375</ele>
        <time>2019-03-23T13:05:24Z</time>
      </trkpt>
      <trkpt lat="43.53286" lon="5.5093">
        <ele>226.39453125</ele>
        <time>2019-03-23T13:05:37Z</time>
      </trkpt>
      <trkpt lat="43.53286" lon="5.50943">
        <ele>226.51953125</ele>
        <time>2019-03-23T13:05:50Z</time>
      </trkpt>
      <trkpt lat="43.53286" lon="5.50958">
        <ele>226.45703125</ele>
        <time>2019-03-23T13:06:04Z</time>
      </trkpt>
      <trkpt lat="43.53293" lon="5.50977">
        <ele>228.69140625</ele>
        <time>2019-03-23T13:06:18Z</time>
      </trkpt>
      <trkpt lat="43.53298" lon="5.50989">
        <ele>230.8203125</ele>
        <time>2019-03-23T13:06:31Z</time>
      </trkpt>
      <trkpt lat="43.53304" lon="5.51007">
        <ele>234.6796875</ele>
        <time>2019-03-23T13:06:44Z</time>
      </trkpt>
      <trkpt lat="43.53308" lon="5.51014">
        <ele>236.73828125</ele>
        <time>2019-03-23T13:06:50Z</time>
      </trkpt>
      <trkpt lat="43.53313" lon="5.51027">
        <ele>239.9296875</ele>
        <time>2019-03-23T13:07:03Z</time>
      </trkpt>
      <trkpt lat="43.53315" lon="5.51039">
        <ele>241.78125</ele>
        <time>2019-03-23T13:07:14Z</time>
      </trkpt>
      <trkpt lat="43.53315" lon="5.51041">
        <ele>242.0625</ele>
        <time>2019-03-23T13:07:16Z</time>
      </trkpt>
      <trkpt lat="43.53303" lon="5.51053">
        <ele>239.6484375</ele>
        <time>2019-03-23T13:07:30Z</time>
      </trkpt>
      <trkpt lat="43.53297" lon="5.51059">
        <ele>238.59765625</ele>
        <time>2019-03-23T13:07:43Z</time>
      </trkpt>
      <trkpt lat="43.53294" lon="5.51063">
        <ele>238.2734375</ele>
        <time>2019-03-23T13:07:54Z</time>
      </trkpt>
      <trkpt lat="43.53288" lon="5.5108">
        <ele>239.609375</ele>
        <time>2019-03-23T13:08:07Z</time>
      </trkpt>
      <trkpt lat="43.53297" lon="5.51102">
        <ele>243.60546875</ele>
        <time>2019-03-23T13:08:18Z</time>
      </trkpt>
      <trkpt lat="43.53303" lon="5.51107">
        <ele>244.83203125</ele>
        <time>2019-03-23T13:08:33Z</time>
      </trkpt>
      <trkpt lat="43.53303" lon="5.51111">
        <ele>245.109375</ele>
        <time>2019-03-23T13:08:39Z</time>
      </trkpt>
      <trkpt lat="43.53301" lon="5.5112">
        <ele>245.48828125</ele>
        <time>2019-03-23T13:08:46Z</time>
      </trkpt>
      <trkpt lat="43.53302" lon="5.51124">
        <ele>245.93359375</ele>
        <time>2019-03-23T13:08:49Z</time>
      </trkpt>
      <trkpt lat="43.53304" lon="5.51138">
        <ele>247.41796875</ele>
        <time>2019-03-23T13:09:01Z</time>
      </trkpt>
      <trkpt lat="43.53305" lon="5.51154">
        <ele>249.9453125</ele>
        <time>2019-03-23T13:09:16Z</time>
      </trkpt>
      <trkpt lat="43.53303" lon="5.51163">
        <ele>250.6484375</ele>
        <time>2019-03-23T13:09:29Z</time>
      </trkpt>
      <trkpt lat="43.53301" lon="5.51166">
        <ele>250.796875</ele>
        <time>2019-03-23T13:09:42Z</time>
      </trkpt>
      <trkpt lat="43.53302" lon="5.51172">
        <ele>252.22265625</ele>
        <time>2019-03-23T13:09:59Z</time>
      </trkpt>
      <trkpt lat="43.53302" lon="5.51172">
        <ele>252.1328125</ele>
        <time>2019-03-23T13:10:00Z</time>
      </trkpt>
      <trkpt lat="43.53291" lon="5.51167">
        <ele>249.4296875</ele>
        <time>2019-03-23T13:10:11Z</time>
      </trkpt>
      <trkpt lat="43.5329" lon="5.51173">
        <ele>250.33984375</ele>
        <time>2019-03-23T13:10:26Z</time>
      </trkpt>
      <trkpt lat="43.53284" lon="5.51179">
        <ele>250.59375</ele>
        <time>2019-03-23T13:10:52Z</time>
      </trkpt>
      <trkpt lat="43.53281" lon="5.51179">
        <ele>250.21484375</ele>
        <time>2019-03-23T13:11:21Z</time>
      </trkpt>
      <trkpt lat="43.53281" lon="5.5118">
        <ele>250.45703125</ele>
        <time>2019-03-23T13:11:43Z</time>
      </trkpt>
      <trkpt lat="43.53278" lon="5.51177">
        <ele>249.46484375</ele>
        <time>2019-03-23T13:12:10Z</time>
      </trkpt>
      <trkpt lat="43.53284" lon="5.51172">
        <ele>249.40234375</ele>
        <time>2019-03-23T13:12:32Z</time>
      </trkpt>
      <trkpt lat="43.53277" lon="5.51166">
        <ele>247.79296875</ele>
        <time>2019-03-23T13:12:43Z</time>
      </trkpt>
      <trkpt lat="43.53277" lon="5.51166">
        <ele>247.56640625</ele>
        <time>2019-03-23T13:12:44Z</time>
      </trkpt>
      <trkpt lat="43.53265" lon="5.51151">
        <ele>243.7578125</ele>
        <time>2019-03-23T13:12:59Z</time>
      </trkpt>
      <trkpt lat="43.5326" lon="5.51138">
        <ele>240.7890625</ele>
        <time>2019-03-23T13:13:11Z</time>
      </trkpt>
      <trkpt lat="43.53257" lon="5.51134">
        <ele>239.57421875</ele>
        <time>2019-03-23T13:13:20Z</time>
      </trkpt>
      <trkpt lat="43.53255" lon="5.51133">
        <ele>239.25</ele>
        <time>2019-03-23T13:13:50Z</time>
      </trkpt>
      <trkpt lat="43.53256" lon="5.51133">
        <ele>239.35546875</ele>
        <time>2019-03-23T13:14:15Z</time>
      </trkpt>
      <trkpt lat="43.53249" lon="5.51135">
        <ele>238.60546875</ele>
        <time>2019-03-23T13:14:46Z</time>
      </trkpt>
      <trkpt lat="43.53246" lon="5.51136">
        <ele>238.359375</ele>
        <time>2019-03-23T13:14:53Z</time>
      </trkpt>
      <trkpt lat="43.53241" lon="5.51135">
        <ele>237.40234375</ele>
        <time>2019-03-23T13:15:08Z</time>
      </trkpt>
      <trkpt lat="43.53237" lon="5.51134">
        <ele>236.68359375</ele>
        <time>2019-03-23T13:15:20Z</time>
      </trkpt>
      <trkpt lat="43.53235" lon="5.51135">
        <ele>236.6875</ele>
        <time>2019-03-23T13:15:35Z</time>
      </trkpt>
      <trkpt lat="43.53235" lon="5.51134">
        <ele>236.41796875</ele>
        <time>2019-03-23T13:16:09Z</time>
      </trkpt>
      <trkpt lat="43.53234" lon="5.51133">
        <ele>236.234375</ele>
        <time>2019-03-23T13:16:35Z</time>
      </trkpt>
      <trkpt lat="43.53234" lon="5.51137">
        <ele>236.9140625</ele>
        <time>2019-03-23T13:16:58Z</time>
      </trkpt>
      <trkpt lat="43.53233" lon="5.51139">
        <ele>236.9765625</ele>
        <time>2019-03-23T13:17:15Z</time>
      </trkpt>
      <trkpt lat="43.53232" lon="5.51136">
        <ele>236.4296875</ele>
        <time>2019-03-23T13:17:21Z</time>
      </trkpt>
      <trkpt lat="43.53231" lon="5.51136">
        <ele>236.27734375</ele>
        <time>2019-03-23T13:17:23Z</time>
      </trkpt>
      <trkpt lat="43.53225" lon="5.51134">
        <ele>235.36328125</ele>
        <time>2019-03-23T13:17:29Z</time>
      </trkpt>
      <trkpt lat="43.53215" lon="5.51129">
        <ele>233.98828125</ele>
        <time>2019-03-23T13:17:40Z</time>
      </trkpt>
      <trkpt lat="43.53211" lon="5.51125">
        <ele>233.26953125</ele>
        <time>2019-03-23T13:17:55Z</time>
      </trkpt>
      <trkpt lat="43.5321" lon="5.51125">
        <ele>233.2578125</ele>
        <time>2019-03-23T13:18:10Z</time>
      </trkpt>
      <trkpt lat="43.5321" lon="5.51124">
        <ele>233.203125</ele>
        <time>2019-03-23T13:18:11Z</time>
      </trkpt>
      <trkpt lat="43.53206" lon="5.51121">
        <ele>233.49609375</ele>
        <time>2019-03-23T13:18:23Z</time>
      </trkpt>
      <trkpt lat="43.53206" lon="5.51121">
        <ele>233.4140625</ele>
        <time>2019-03-23T13:18:24Z</time>
      </trkpt>
      <trkpt lat="43.53205" lon="5.51116">
        <ele>233.21484375</ele>
        <time>2019-03-23T13:18:37Z</time>
      </trkpt>
      <trkpt lat="43.53205" lon="5.51122">
        <ele>233.80078125</ele>
        <time>2019-03-23T13:18:51Z</time>
      </trkpt>
      <trkpt lat="43.53204" lon="5.51126">
        <ele>234.125</ele>
        <time>2019-03-23T13:19:12Z</time>
      </trkpt>
      <trkpt lat="43.53204" lon="5.51116">
        <ele>233.55078125</ele>
        <time>2019-03-23T13:19:19Z</time>
      </trkpt>
      <trkpt lat="43.53201" lon="5.51107">
        <ele>233.38671875</ele>
        <time>2019-03-23T13:19:27Z</time>
      </trkpt>
      <trkpt lat="43.532" lon="5.51092">
        <ele>231.89453125</ele>
        <time>2019-03-23T13:19:40Z</time>
      </trkpt>
      <trkpt lat="43.53197" lon="5.51083">
        <ele>231.4453125</ele>
        <time>2019-03-23T13:19:47Z</time>
      </trkpt>
      <trkpt lat="43.53186" lon="5.51073">
        <ele>233.97265625</ele>
        <time>2019-03-23T13:20:00Z</time>
      </trkpt>
      <trkpt lat="43.53181" lon="5.51072">
        <ele>235.36328125</ele>
        <time>2019-03-23T13:20:12Z</time>
      </trkpt>
      <trkpt lat="43.53179" lon="5.51073">
        <ele>236.01953125</ele>
        <time>2019-03-23T13:20:15Z</time>
      </trkpt>
      <trkpt lat="43.53178" lon="5.51072">
        <ele>236.6640625</ele>
        <time>2019-03-23T13:20:17Z</time>
      </trkpt>
      <trkpt lat="43.53169" lon="5.51077">
        <ele>240.37109375</ele>
        <time>2019-03-23T13:20:29Z</time>
      </trkpt>
      <trkpt lat="43.53169" lon="5.51081">
        <ele>240.79296875</ele>
        <time>2019-03-23T13:20:34Z</time>
      </trkpt>
      <trkpt lat="43.53163" lon="5.51091">
        <ele>243.4921875</ele>
        <time>2019-03-23T13:20:49Z</time>
      </trkpt>
      <trkpt lat="43.53157" lon="5.51092">
        <ele>245.64453125</ele>
        <time>2019-03-23T13:21:06Z</time>
      </trkpt>
      <trkpt lat="43.53149" lon="5.51098">
        <ele>247.328125</ele>
        <time>2019-03-23T13:21:17Z</time>
      </trkpt>
      <trkpt lat="43.53144" lon="5.51106">
        <ele>248.234375</ele>
        <time>2019-03-23T13:21:29Z</time>
      </trkpt>
      <trkpt lat="43.53141" lon="5.51115">
        <ele>249.25390625</ele>
        <time>2019-03-23T13:21:43Z</time>
      </trkpt>
      <trkpt lat="43.53139" lon="5.51119">
        <ele>249.90625</ele>
        <time>2019-03-23T13:21:54Z</time>
      </trkpt>
      <trkpt lat="43.53139" lon="5.51138">
        <ele>251.0859375</ele>
        <time>2019-03-23T13:22:08Z</time>
      </trkpt>
      <trkpt lat="43.53144" lon="5.5115">
        <ele>249.31640625</ele>
        <time>2019-03-23T13:22:23Z</time>
      </trkpt>
      <trkpt lat="43.53145" lon="5.51156">
        <ele>248.59765625</ele>
        <time>2019-03-23T13:22:30Z</time>
      </trkpt>
      <trkpt lat="43.53147" lon="5.51177">
        <ele>248.01953125</ele>
        <time>2019-03-23T13:22:46Z</time>
      </trkpt>
      <trkpt lat="43.53145" lon="5.51187">
        <ele>248.80859375</ele>
        <time>2019-03-23T13:22:57Z</time>
      </trkpt>
      <trkpt lat="43.53144" lon="5.51195">
        <ele>249.7265625</ele>
        <time>2019-03-23T13:23:04Z</time>
      </trkpt>
      <trkpt lat="43.53142" lon="5.51208">
        <ele>251.14453125</ele>
        <time>2019-03-23T13:23:17Z</time>
      </trkpt>
      <trkpt lat="43.5314" lon="5.51221">
        <ele>252.28515625</ele>
        <time>2019-03-23T13:23:25Z</time>
      </trkpt>
      <trkpt lat="43.53137" lon="5.51235">
        <ele>254.390625</ele>
        <time>2019-03-23T13:23:38Z</time>
      </trkpt>
      <trkpt lat="43.53134" lon="5.51243">
        <ele>256.49609375</ele>
        <time>2019-03-23T13:23:45Z</time>
      </trkpt>
      <trkpt lat="43.53132" lon="5.51258">
        <ele>258.3515625</ele>
        <time>2019-03-23T13:23:58Z</time>
      </trkpt>
      <trkpt lat="43.53129" lon="5.51269">
        <ele>260.88671875</ele>
        <time>2019-03-23T13:24:08Z</time>
      </trkpt>
      <trkpt lat="43.53125" lon="5.51282">
        <ele>263.4375</ele>
        <time>2019-03-23T13:24:19Z</time>
      </trkpt>
      <trkpt lat="43.53121" lon="5.51293">
        <ele>265.66796875</ele>
        <time>2019-03-23T13:24:32Z</time>
      </trkpt>
      <trkpt lat="43.5312" lon="5.51301">
        <ele>266.51171875</ele>
        <time>2019-03-23T13:24:41Z</time>
      </trkpt>
      <trkpt lat="43.5312" lon="5.51316">
        <ele>264.9296875</ele>
        <time>2019-03-23T13:24:52Z</time>
      </trkpt>
      <trkpt lat="43.53117" lon="5.51332">
        <ele>264.1328125</ele>
        <time>2019-03-23T13:25:07Z</time>
      </trkpt>
      <trkpt lat="43.53114" lon="5.51352">
        <ele>260.98046875</ele>
        <time>2019-03-23T13:25:21Z</time>
      </trkpt>
      <trkpt lat="43.53113" lon="5.51364">
        <ele>257.74609375</ele>
        <time>2019-03-23T13:25:29Z</time>
      </trkpt>
      <trkpt lat="43.53108" lon="5.51369">
        <ele>257.7109375</ele>
        <time>2019-03-23T13:25:44Z</time>
      </trkpt>
      <trkpt lat="43.53105" lon="5.5137">
        <ele>258.5625</ele>
        <time>2019-03-23T13:25:57Z</time>
      </trkpt>
      <trkpt lat="43.53103" lon="5.51369">
        <ele>259.80859375</ele>
        <time>2019-03-23T13:26:10Z</time>
      </trkpt>
      <trkpt lat="43.53103" lon="5.5137">
        <ele>259.5546875</ele>
        <time>2019-03-23T13:26:12Z</time>
      </trkpt>
      <trkpt lat="43.53103" lon="5.51367">
        <ele>260.55859375</ele>
        <time>2019-03-23T13:26:15Z</time>
      </trkpt>
      <trkpt lat="43.53104" lon="5.51366">
        <ele>260.8984375</ele>
        <time>2019-03-23T13:26:18Z</time>
      </trkpt>
      <trkpt lat="43.53104" lon="5.51364">
        <ele>261.7421875</ele>
        <time>2019-03-23T13:26:20Z</time>
      </trkpt>
      <trkpt lat="43.53101" lon="5.5136">
        <ele>264.7890625</ele>
        <time>2019-03-23T13:26:34Z</time>
      </trkpt>
      <trkpt lat="43.53104" lon="5.5136">
        <ele>263.328125</ele>
        <time>2019-03-23T13:26:46Z</time>
      </trkpt>
      <trkpt lat="43.53104" lon="5.51361">
        <ele>263.21875</ele>
        <time>2019-03-23T13:26:47Z</time>
      </trkpt>
      <trkpt lat="43.53104" lon="5.51361">
        <ele>263.15625</ele>
        <time>2019-03-23T13:26:48Z</time>
      </trkpt>
      <trkpt lat="43.53104" lon="5.51361">
        <ele>263.234375</ele>
        <time>2019-03-23T13:26:49Z</time>
      </trkpt>
      <trkpt lat="43.53103" lon="5.51361">
        <ele>263.359375</ele>
        <time>2019-03-23T13:26:50Z</time>
      </trkpt>
      <trkpt lat="43.53103" lon="5.51361">
        <ele>263.375</ele>
        <time>2019-03-23T13:26:55Z</time>
      </trkpt>
      <trkpt lat="43.53103" lon="5.51362">
        <ele>262.8515625</ele>
        <time>2019-03-23T13:26:58Z</time>
      </trkpt>
      <trkpt lat="43.53102" lon="5.51363">
        <ele>262.84765625</ele>
        <time>2019-03-23T13:27:05Z</time>
      </trkpt>
      <trkpt lat="43.53102" lon="5.51363">
        <ele>262.8046875</ele>
        <time>2019-03-23T13:27:06Z</time>
      </trkpt>
      <trkpt lat="43.53101" lon="5.51365">
        <ele>262.3671875</ele>
        <time>2019-03-23T13:27:40Z</time>
      </trkpt>
      <trkpt lat="43.53099" lon="5.51368">
        <ele>262.390625</ele>
        <time>2019-03-23T13:27:50Z</time>
      </trkpt>
      <trkpt lat="43.53099" lon="5.51368">
        <ele>262.40625</ele>
        <time>2019-03-23T13:27:52Z</time>
      </trkpt>
      <trkpt lat="43.53095" lon="5.51365">
        <ele>264.48046875</ele>
        <time>2019-03-23T13:28:01Z</time>
      </trkpt>
      <trkpt lat="43.53091" lon="5.51364">
        <ele>266.125</ele>
        <time>2019-03-23T13:28:06Z</time>
      </trkpt>
      <trkpt lat="43.53088" lon="5.51364">
        <ele>266.67578125</ele>
        <time>2019-03-23T13:28:08Z</time>
      </trkpt>
      <trkpt lat="43.53082" lon="5.51368">
        <ele>266.43359375</ele>
        <time>2019-03-23T13:28:17Z</time>
      </trkpt>
      <trkpt lat="43.53078" lon="5.51368">
        <ele>267.30078125</ele>
        <time>2019-03-23T13:28:23Z</time>
      </trkpt>
      <trkpt lat="43.53073" lon="5.51369">
        <ele>267.9140625</ele>
        <time>2019-03-23T13:28:31Z</time>
      </trkpt>
      <trkpt lat="43.5307" lon="5.51369">
        <ele>268.8203125</ele>
        <time>2019-03-23T13:28:36Z</time>
      </trkpt>
      <trkpt lat="43.53067" lon="5.51369">
        <ele>268.80078125</ele>
        <time>2019-03-23T13:28:40Z</time>
      </trkpt>
      <trkpt lat="43.53059" lon="5.5137">
        <ele>269.08203125</ele>
        <time>2019-03-23T13:28:51Z</time>
      </trkpt>
      <trkpt lat="43.53051" lon="5.5137">
        <ele>269.69140625</ele>
        <time>2019-03-23T13:29:02Z</time>
      </trkpt>
      <trkpt lat="43.53046" lon="5.5137">
        <ele>269.77734375</ele>
        <time>2019-03-23T13:29:10Z</time>
      </trkpt>
      <trkpt lat="43.53042" lon="5.51369">
        <ele>270.51171875</ele>
        <time>2019-03-23T13:29:21Z</time>
      </trkpt>
      <trkpt lat="43.5304" lon="5.51369">
        <ele>270.49609375</ele>
        <time>2019-03-23T13:29:23Z</time>
      </trkpt>
      <trkpt lat="43.53039" lon="5.51369">
        <ele>270.2578125</ele>
        <time>2019-03-23T13:29:25Z</time>
      </trkpt>
      <trkpt lat="43.53035" lon="5.51374">
        <ele>267.6328125</ele>
        <time>2019-03-23T13:29:37Z</time>
      </trkpt>
      <trkpt lat="43.53032" lon="5.5137">
        <ele>269.5</ele>
        <time>2019-03-23T13:29:53Z</time>
      </trkpt>
      <trkpt lat="43.53025" lon="5.51369">
        <ele>269.28515625</ele>
        <time>2019-03-23T13:30:06Z</time>
      </trkpt>
      <trkpt lat="43.53022" lon="5.51369">
        <ele>268.87109375</ele>
        <time>2019-03-23T13:30:11Z</time>
      </trkpt>
      <trkpt lat="43.53021" lon="5.51368">
        <ele>269.0546875</ele>
        <time>2019-03-23T13:30:13Z</time>
      </trkpt>
      <trkpt lat="43.53015" lon="5.51368">
        <ele>268.8125</ele>
        <time>2019-03-23T13:30:24Z</time>
      </trkpt>
      <trkpt lat="43.5301" lon="5.51372">
        <ele>267.09765625</ele>
        <time>2019-03-23T13:30:35Z</time>
      </trkpt>
      <trkpt lat="43.53001" lon="5.51378">
        <ele>265.6015625</ele>
        <time>2019-03-23T13:30:45Z</time>
      </trkpt>
      <trkpt lat="43.52995" lon="5.51382">
        <ele>264.5234375</ele>
        <time>2019-03-23T13:30:55Z</time>
      </trkpt>
      <trkpt lat="43.52989" lon="5.51384">
        <ele>264.484375</ele>
        <time>2019-03-23T13:31:01Z</time>
      </trkpt>
      <trkpt lat="43.52984" lon="5.51385">
        <ele>264.4609375</ele>
        <time>2019-03-23T13:31:06Z</time>
      </trkpt>
      <trkpt lat="43.52982" lon="5.51387">
        <ele>264.3046875</ele>
        <time>2019-03-23T13:31:08Z</time>
      </trkpt>
      <trkpt lat="43.52977" lon="5.51388">
        <ele>264.67578125</ele>
        <time>2019-03-23T13:31:13Z</time>
      </trkpt>
      <trkpt lat="43.52972" lon="5.51389">
        <ele>264.9296875</ele>
        <time>2019-03-23T13:31:19Z</time>
      </trkpt>
      <trkpt lat="43.52967" lon="5.51391">
        <ele>265.30859375</ele>
        <time>2019-03-23T13:31:26Z</time>
      </trkpt>
      <trkpt lat="43.52957" lon="5.51393">
        <ele>265.828125</ele>
        <time>2019-03-23T13:31:38Z</time>
      </trkpt>
      <trkpt lat="43.52946" lon="5.51394">
        <ele>266.4921875</ele>
        <time>2019-03-23T13:31:51Z</time>
      </trkpt>
      <trkpt lat="43.5294" lon="5.51398">
        <ele>266.49609375</ele>
        <time>2019-03-23T13:32:04Z</time>
      </trkpt>
      <trkpt lat="43.52927" lon="5.51399">
        <ele>267.5078125</ele>
        <time>2019-03-23T13:32:14Z</time>
      </trkpt>
      <trkpt lat="43.52922" lon="5.514">
        <ele>267.93359375</ele>
        <time>2019-03-23T13:32:23Z</time>
      </trkpt>
      <trkpt lat="43.52906" lon="5.51401">
        <ele>269.66015625</ele>
        <time>2019-03-23T13:32:28Z</time>
      </trkpt>
      <trkpt lat="43.52898" lon="5.51405">
        <ele>270.90625</ele>
        <time>2019-03-23T13:32:41Z</time>
      </trkpt>
      <trkpt lat="43.52883" lon="5.51412">
        <ele>273.5625</ele>
        <time>2019-03-23T13:32:54Z</time>
      </trkpt>
      <trkpt lat="43.52875" lon="5.51421">
        <ele>274.5</ele>
        <time>2019-03-23T13:33:05Z</time>
      </trkpt>
      <trkpt lat="43.52873" lon="5.51422">
        <ele>274.8359375</ele>
        <time>2019-03-23T13:33:08Z</time>
      </trkpt>
      <trkpt lat="43.52866" lon="5.51429">
        <ele>275.49609375</ele>
        <time>2019-03-23T13:33:21Z</time>
      </trkpt>
      <trkpt lat="43.52863" lon="5.51434">
        <ele>275.68359375</ele>
        <time>2019-03-23T13:33:27Z</time>
      </trkpt>
      <trkpt lat="43.52854" lon="5.51442">
        <ele>276.9453125</ele>
        <time>2019-03-23T13:33:35Z</time>
      </trkpt>
      <trkpt lat="43.52846" lon="5.51437">
        <ele>278.43359375</ele>
        <time>2019-03-23T13:33:44Z</time>
      </trkpt>
      <trkpt lat="43.52835" lon="5.51435">
        <ele>279.91015625</ele>
        <time>2019-03-23T13:33:56Z</time>
      </trkpt>
      <trkpt lat="43.52827" lon="5.51437">
        <ele>280.765625</ele>
        <time>2019-03-23T13:34:06Z</time>
      </trkpt>
      <trkpt lat="43.5282" lon="5.51438">
        <ele>281.5546875</ele>
        <time>2019-03-23T13:34:14Z</time>
      </trkpt>
      <trkpt lat="43.5281" lon="5.51442">
        <ele>282.7890625</ele>
        <time>2019-03-23T13:34:27Z</time>
      </trkpt>
      <trkpt lat="43.52799" lon="5.51446">
        <ele>284.58203125</ele>
        <time>2019-03-23T13:34:39Z</time>
      </trkpt>
      <trkpt lat="43.52788" lon="5.51451">
        <ele>286.44140625</ele>
        <time>2019-03-23T13:34:50Z</time>
      </trkpt>
      <trkpt lat="43.52777" lon="5.51454">
        <ele>288.0234375</ele>
        <time>2019-03-23T13:35:02Z</time>
      </trkpt>
      <trkpt lat="43.52772" lon="5.51455">
        <ele>288.8125</ele>
        <time>2019-03-23T13:35:08Z</time>
      </trkpt>
      <trkpt lat="43.5276" lon="5.51457">
        <ele>290.6953125</ele>
        <time>2019-03-23T13:35:21Z</time>
      </trkpt>
      <trkpt lat="43.52758" lon="5.51459">
        <ele>290.98046875</ele>
        <time>2019-03-23T13:35:24Z</time>
      </trkpt>
      <trkpt lat="43.52752" lon="5.51466">
        <ele>291.890625</ele>
        <time>2019-03-23T13:35:36Z</time>
      </trkpt>
      <trkpt lat="43.52748" lon="5.51467">
        <ele>292.5546875</ele>
        <time>2019-03-23T13:35:40Z</time>
      </trkpt>
      <trkpt lat="43.52737" lon="5.51474">
        <ele>294.96484375</ele>
        <time>2019-03-23T13:35:51Z</time>
      </trkpt>
      <trkpt lat="43.52733" lon="5.51483">
        <ele>294.66015625</ele>
        <time>2019-03-23T13:36:05Z</time>
      </trkpt>
      <trkpt lat="43.52726" lon="5.51483">
        <ele>294.04296875</ele>
        <time>2019-03-23T13:36:17Z</time>
      </trkpt>
      <trkpt lat="43.5272" lon="5.51492">
        <ele>293.63671875</ele>
        <time>2019-03-23T13:36:30Z</time>
      </trkpt>
      <trkpt lat="43.52719" lon="5.51496">
        <ele>293.69921875</ele>
        <time>2019-03-23T13:36:46Z</time>
      </trkpt>
      <trkpt lat="43.52717" lon="5.51495">
        <ele>293.53515625</ele>
        <time>2019-03-23T13:36:51Z</time>
      </trkpt>
      <trkpt lat="43.52714" lon="5.515">
        <ele>293.57421875</ele>
        <time>2019-03-23T13:36:58Z</time>
      </trkpt>
      <trkpt lat="43.52711" lon="5.51512">
        <ele>294.1328125</ele>
        <time>2019-03-23T13:37:10Z</time>
      </trkpt>
      <trkpt lat="43.52712" lon="5.51513">
        <ele>294.32421875</ele>
        <time>2019-03-23T13:37:21Z</time>
      </trkpt>
      <trkpt lat="43.52711" lon="5.51515">
        <ele>294.33984375</ele>
        <time>2019-03-23T13:37:23Z</time>
      </trkpt>
      <trkpt lat="43.52707" lon="5.51527">
        <ele>294.53125</ele>
        <time>2019-03-23T13:37:36Z</time>
      </trkpt>
      <trkpt lat="43.52706" lon="5.5154">
        <ele>294.9453125</ele>
        <time>2019-03-23T13:37:50Z</time>
      </trkpt>
      <trkpt lat="43.52706" lon="5.51548">
        <ele>295.1875</ele>
        <time>2019-03-23T13:37:58Z</time>
      </trkpt>
      <trkpt lat="43.52705" lon="5.51568">
        <ele>296.75390625</ele>
        <time>2019-03-23T13:38:11Z</time>
      </trkpt>
      <trkpt lat="43.52704" lon="5.51578">
        <ele>297.66015625</ele>
        <time>2019-03-23T13:38:22Z</time>
      </trkpt>
      <trkpt lat="43.52703" lon="5.51582">
        <ele>297.8671875</ele>
        <time>2019-03-23T13:38:30Z</time>
      </trkpt>
      <trkpt lat="43.52704" lon="5.51602">
        <ele>299.48046875</ele>
        <time>2019-03-23T13:38:43Z</time>
      </trkpt>
      <trkpt lat="43.52704" lon="5.51615">
        <ele>300.33203125</ele>
        <time>2019-03-23T13:38:54Z</time>
      </trkpt>
      <trkpt lat="43.52704" lon="5.51629">
        <ele>301.5625</ele>
        <time>2019-03-23T13:39:05Z</time>
      </trkpt>
      <trkpt lat="43.52703" lon="5.5164">
        <ele>302.1328125</ele>
        <time>2019-03-23T13:39:17Z</time>
      </trkpt>
      <trkpt lat="43.52702" lon="5.51643">
        <ele>302.11328125</ele>
        <time>2019-03-23T13:39:19Z</time>
      </trkpt>
      <trkpt lat="43.52701" lon="5.51648">
        <ele>302.09375</ele>
        <time>2019-03-23T13:39:22Z</time>
      </trkpt>
      <trkpt lat="43.527" lon="5.51663">
        <ele>302.66015625</ele>
        <time>2019-03-23T13:39:35Z</time>
      </trkpt>
      <trkpt lat="43.52696" lon="5.51674">
        <ele>302.8515625</ele>
        <time>2019-03-23T13:39:45Z</time>
      </trkpt>
      <trkpt lat="43.52693" lon="5.51686">
        <ele>303.2890625</ele>
        <time>2019-03-23T13:39:58Z</time>
      </trkpt>
      <trkpt lat="43.52692" lon="5.51689">
        <ele>303.40234375</ele>
        <time>2019-03-23T13:40:01Z</time>
      </trkpt>
      <trkpt lat="43.5269" lon="5.517">
        <ele>303.6953125</ele>
        <time>2019-03-23T13:40:09Z</time>
      </trkpt>
      <trkpt lat="43.52689" lon="5.51725">
        <ele>304.8359375</ele>
        <time>2019-03-23T13:40:22Z</time>
      </trkpt>
      <trkpt lat="43.5269" lon="5.51732">
        <ele>305.25</ele>
        <time>2019-03-23T13:40:26Z</time>
      </trkpt>
      <trkpt lat="43.52686" lon="5.51753">
        <ele>306.22265625</ele>
        <time>2019-03-23T13:40:41Z</time>
      </trkpt>
      <trkpt lat="43.52687" lon="5.51763">
        <ele>306.5703125</ele>
        <time>2019-03-23T13:40:48Z</time>
      </trkpt>
      <trkpt lat="43.52685" lon="5.51787">
        <ele>308.6796875</ele>
        <time>2019-03-23T13:41:01Z</time>
      </trkpt>
      <trkpt lat="43.52682" lon="5.51793">
        <ele>309.58984375</ele>
        <time>2019-03-23T13:41:09Z</time>
      </trkpt>
      <trkpt lat="43.52676" lon="5.51798">
        <ele>308.1640625</ele>
        <time>2019-03-23T13:41:18Z</time>
      </trkpt>
      <trkpt lat="43.52674" lon="5.51805">
        <ele>308.64453125</ele>
        <time>2019-03-23T13:41:23Z</time>
      </trkpt>
      <trkpt lat="43.5267" lon="5.51815">
        <ele>308.6328125</ele>
        <time>2019-03-23T13:41:33Z</time>
      </trkpt>
      <trkpt lat="43.52664" lon="5.51835">
        <ele>309.76953125</ele>
        <time>2019-03-23T13:41:47Z</time>
      </trkpt>
      <trkpt lat="43.52658" lon="5.51846">
        <ele>308.42578125</ele>
        <time>2019-03-23T13:41:57Z</time>
      </trkpt>
      <trkpt lat="43.52651" lon="5.51858">
        <ele>307.2734375</ele>
        <time>2019-03-23T13:42:08Z</time>
      </trkpt>
      <trkpt lat="43.5265" lon="5.51861">
        <ele>307.04296875</ele>
        <time>2019-03-23T13:42:11Z</time>
      </trkpt>
      <trkpt lat="43.52644" lon="5.51879">
        <ele>306.81640625</ele>
        <time>2019-03-23T13:42:24Z</time>
      </trkpt>
      <trkpt lat="43.52644" lon="5.5188">
        <ele>306.79296875</ele>
        <time>2019-03-23T13:42:25Z</time>
      </trkpt>
      <trkpt lat="43.52642" lon="5.51902">
        <ele>307.53125</ele>
        <time>2019-03-23T13:42:35Z</time>
      </trkpt>
      <trkpt lat="43.52635" lon="5.51911">
        <ele>306.1015625</ele>
        <time>2019-03-23T13:42:47Z</time>
      </trkpt>
      <trkpt lat="43.52632" lon="5.51922">
        <ele>306.12890625</ele>
        <time>2019-03-23T13:42:57Z</time>
      </trkpt>
      <trkpt lat="43.52632" lon="5.51928">
        <ele>306.59375</ele>
        <time>2019-03-23T13:43:00Z</time>
      </trkpt>
      <trkpt lat="43.5263" lon="5.51949">
        <ele>307.46484375</ele>
        <time>2019-03-23T13:43:13Z</time>
      </trkpt>
      <trkpt lat="43.5263" lon="5.51951">
        <ele>307.625</ele>
        <time>2019-03-23T13:43:14Z</time>
      </trkpt>
      <trkpt lat="43.52625" lon="5.51981">
        <ele>308.29296875</ele>
        <time>2019-03-23T13:43:27Z</time>
      </trkpt>
      <trkpt lat="43.52621" lon="5.51994">
        <ele>307.61328125</ele>
        <time>2019-03-23T13:43:40Z</time>
      </trkpt>
      <trkpt lat="43.52615" lon="5.51995">
        <ele>305.78515625</ele>
        <time>2019-03-23T13:43:47Z</time>
      </trkpt>
      <trkpt lat="43.52603" lon="5.52002">
        <ele>302.71875</ele>
        <time>2019-03-23T13:44:00Z</time>
      </trkpt>
      <trkpt lat="43.52599" lon="5.52026">
        <ele>302.17578125</ele>
        <time>2019-03-23T13:44:11Z</time>
      </trkpt>
      <trkpt lat="43.52598" lon="5.52029">
        <ele>301.74609375</ele>
        <time>2019-03-23T13:44:13Z</time>
      </trkpt>
      <trkpt lat="43.52597" lon="5.52038">
        <ele>300.875</ele>
        <time>2019-03-23T13:44:24Z</time>
      </trkpt>
      <trkpt lat="43.52596" lon="5.52038">
        <ele>300.796875</ele>
        <time>2019-03-23T13:44:25Z</time>
      </trkpt>
      <trkpt lat="43.52595" lon="5.52051">
        <ele>299.59765625</ele>
        <time>2019-03-23T13:44:38Z</time>
      </trkpt>
      <trkpt lat="43.52594" lon="5.52053">
        <ele>299.39453125</ele>
        <time>2019-03-23T13:44:39Z</time>
      </trkpt>
      <trkpt lat="43.52593" lon="5.52066">
        <ele>298.4296875</ele>
        <time>2019-03-23T13:44:51Z</time>
      </trkpt>
      <trkpt lat="43.52593" lon="5.52068">
        <ele>298.2265625</ele>
        <time>2019-03-23T13:44:54Z</time>
      </trkpt>
      <trkpt lat="43.52588" lon="5.52079">
        <ele>296.9296875</ele>
        <time>2019-03-23T13:45:06Z</time>
      </trkpt>
      <trkpt lat="43.52587" lon="5.5208">
        <ele>296.85546875</ele>
        <time>2019-03-23T13:45:07Z</time>
      </trkpt>
      <trkpt lat="43.52585" lon="5.52087">
        <ele>295.97265625</ele>
        <time>2019-03-23T13:45:13Z</time>
      </trkpt>
      <trkpt lat="43.52584" lon="5.52089">
        <ele>295.65234375</ele>
        <time>2019-03-23T13:45:15Z</time>
      </trkpt>
      <trkpt lat="43.52583" lon="5.52092">
        <ele>295.3359375</ele>
        <time>2019-03-23T13:45:17Z</time>
      </trkpt>
      <trkpt lat="43.52581" lon="5.52108">
        <ele>293.765625</ele>
        <time>2019-03-23T13:45:29Z</time>
      </trkpt>
      <trkpt lat="43.52581" lon="5.52111">
        <ele>293.57421875</ele>
        <time>2019-03-23T13:45:30Z</time>
      </trkpt>
      <trkpt lat="43.5258" lon="5.52115">
        <ele>293.22265625</ele>
        <time>2019-03-23T13:45:33Z</time>
      </trkpt>
      <trkpt lat="43.52577" lon="5.52129">
        <ele>291.9453125</ele>
        <time>2019-03-23T13:45:45Z</time>
      </trkpt>
      <trkpt lat="43.52575" lon="5.52144">
        <ele>290.75390625</ele>
        <time>2019-03-23T13:45:57Z</time>
      </trkpt>
      <trkpt lat="43.52575" lon="5.52146">
        <ele>290.6171875</ele>
        <time>2019-03-23T13:45:59Z</time>
      </trkpt>
      <trkpt lat="43.52573" lon="5.52151">
        <ele>290.1328125</ele>
        <time>2019-03-23T13:46:04Z</time>
      </trkpt>
      <trkpt lat="43.52571" lon="5.5217">
        <ele>288.625</ele>
        <time>2019-03-23T13:46:17Z</time>
      </trkpt>
      <trkpt lat="43.52569" lon="5.52182">
        <ele>287.73828125</ele>
        <time>2019-03-23T13:46:27Z</time>
      </trkpt>
      <trkpt lat="43.5257" lon="5.52195">
        <ele>286.765625</ele>
        <time>2019-03-23T13:46:40Z</time>
      </trkpt>
      <trkpt lat="43.52566" lon="5.522">
        <ele>286.44921875</ele>
        <time>2019-03-23T13:46:49Z</time>
      </trkpt>
      <trkpt lat="43.5256" lon="5.52224">
        <ele>284.7109375</ele>
        <time>2019-03-23T13:47:04Z</time>
      </trkpt>
      <trkpt lat="43.52552" lon="5.52232">
        <ele>283.92578125</ele>
        <time>2019-03-23T13:47:18Z</time>
      </trkpt>
      <trkpt lat="43.52547" lon="5.52237">
        <ele>283.2421875</ele>
        <time>2019-03-23T13:47:27Z</time>
      </trkpt>
      <trkpt lat="43.52541" lon="5.52247">
        <ele>282.2734375</ele>
        <time>2019-03-23T13:47:39Z</time>
      </trkpt>
      <trkpt lat="43.52539" lon="5.52248">
        <ele>282.44140625</ele>
        <time>2019-03-23T13:47:42Z</time>
      </trkpt>
      <trkpt lat="43.52532" lon="5.52255">
        <ele>282.91015625</ele>
        <time>2019-03-23T13:47:52Z</time>
      </trkpt>
      <trkpt lat="43.52525" lon="5.5226">
        <ele>283.55078125</ele>
        <time>2019-03-23T13:48:00Z</time>
      </trkpt>
      <trkpt lat="43.52524" lon="5.52263">
        <ele>283.484375</ele>
        <time>2019-03-23T13:48:03Z</time>
      </trkpt>
      <trkpt lat="43.52518" lon="5.52268">
        <ele>283.9921875</ele>
        <time>2019-03-23T13:48:10Z</time>
      </trkpt>
      <trkpt lat="43.52516" lon="5.5227">
        <ele>284.12109375</ele>
        <time>2019-03-23T13:48:12Z</time>
      </trkpt>
      <trkpt lat="43.52508" lon="5.52286">
        <ele>283.17578125</ele>
        <time>2019-03-23T13:48:27Z</time>
      </trkpt>
      <trkpt lat="43.52495" lon="5.523">
        <ele>282.43359375</ele>
        <time>2019-03-23T13:48:39Z</time>
      </trkpt>
      <trkpt lat="43.52491" lon="5.52311">
        <ele>281.42578125</ele>
        <time>2019-03-23T13:48:46Z</time>
      </trkpt>
      <trkpt lat="43.52478" lon="5.5232">
        <ele>281.0546875</ele>
        <time>2019-03-23T13:49:01Z</time>
      </trkpt>
      <trkpt lat="43.52473" lon="5.5233">
        <ele>280.05859375</ele>
        <time>2019-03-23T13:49:10Z</time>
      </trkpt>
      <trkpt lat="43.52469" lon="5.52338">
        <ele>279.31640625</ele>
        <time>2019-03-23T13:49:15Z</time>
      </trkpt>
      <trkpt lat="43.52464" lon="5.52342">
        <ele>279.0546875</ele>
        <time>2019-03-23T13:49:22Z</time>
      </trkpt>
      <trkpt lat="43.52461" lon="5.52346">
        <ele>278.63671875</ele>
        <time>2019-03-23T13:49:26Z</time>
      </trkpt>
      <trkpt lat="43.52457" lon="5.52347">
        <ele>278.67578125</ele>
        <time>2019-03-23T13:49:30Z</time>
      </trkpt>
      <trkpt lat="43.52449" lon="5.52348">
        <ele>278.921875</ele>
        <time>2019-03-23T13:49:37Z</time>
      </trkpt>
      <trkpt lat="43.52439" lon="5.52349">
        <ele>279.30078125</ele>
        <time>2019-03-23T13:49:52Z</time>
      </trkpt>
      <trkpt lat="43.52436" lon="5.5234">
        <ele>280.1640625</ele>
        <time>2019-03-23T13:50:04Z</time>
      </trkpt>
      <trkpt lat="43.52436" lon="5.52332">
        <ele>280.8125</ele>
        <time>2019-03-23T13:50:14Z</time>
      </trkpt>
      <trkpt lat="43.52437" lon="5.52329">
        <ele>281.078125</ele>
        <time>2019-03-23T13:50:19Z</time>
      </trkpt>
      <trkpt lat="43.52439" lon="5.52322">
        <ele>281.43359375</ele>
        <time>2019-03-23T13:50:27Z</time>
      </trkpt>
      <trkpt lat="43.52439" lon="5.52313">
        <ele>281.94140625</ele>
        <time>2019-03-23T13:50:38Z</time>
      </trkpt>
      <trkpt lat="43.52443" lon="5.523">
        <ele>282.90234375</ele>
        <time>2019-03-23T13:50:50Z</time>
      </trkpt>
      <trkpt lat="43.52444" lon="5.52297">
        <ele>283.05859375</ele>
        <time>2019-03-23T13:51:02Z</time>
      </trkpt>
      <trkpt lat="43.52445" lon="5.52291">
        <ele>283.3359375</ele>
        <time>2019-03-23T13:51:17Z</time>
      </trkpt>
      <trkpt lat="43.52447" lon="5.5228">
        <ele>284.16015625</ele>
        <time>2019-03-23T13:51:29Z</time>
      </trkpt>
      <trkpt lat="43.52449" lon="5.52275">
        <ele>284.80859375</ele>
        <time>2019-03-23T13:51:36Z</time>
      </trkpt>
      <trkpt lat="43.52452" lon="5.52264">
        <ele>284.83203125</ele>
        <time>2019-03-23T13:51:47Z</time>
      </trkpt>
      <trkpt lat="43.52455" lon="5.52253">
        <ele>285.15625</ele>
        <time>2019-03-23T13:51:59Z</time>
      </trkpt>
      <trkpt lat="43.52457" lon="5.52242">
        <ele>284.95703125</ele>
        <time>2019-03-23T13:52:11Z</time>
      </trkpt>
      <trkpt lat="43.52458" lon="5.52231">
        <ele>283.88671875</ele>
        <time>2019-03-23T13:52:23Z</time>
      </trkpt>
      <trkpt lat="43.52458" lon="5.52228">
        <ele>283.5</ele>
        <time>2019-03-23T13:52:26Z</time>
      </trkpt>
      <trkpt lat="43.52453" lon="5.52218">
        <ele>280.6015625</ele>
        <time>2019-03-23T13:52:37Z</time>
      </trkpt>
      <trkpt lat="43.5245" lon="5.52209">
        <ele>278.2109375</ele>
        <time>2019-03-23T13:52:50Z</time>
      </trkpt>
      <trkpt lat="43.52444" lon="5.52207">
        <ele>275.6875</ele>
        <time>2019-03-23T13:53:06Z</time>
      </trkpt>
      <trkpt lat="43.52446" lon="5.52198">
        <ele>275.078125</ele>
        <time>2019-03-23T13:53:19Z</time>
      </trkpt>
      <trkpt lat="43.52449" lon="5.52194">
        <ele>276.01953125</ele>
        <time>2019-03-23T13:53:48Z</time>
      </trkpt>
      <trkpt lat="43.52446" lon="5.52191">
        <ele>274.09765625</ele>
        <time>2019-03-23T13:54:15Z</time>
      </trkpt>
      <trkpt lat="43.52448" lon="5.52191">
        <ele>275.19140625</ele>
        <time>2019-03-23T13:54:20Z</time>
      </trkpt>
      <trkpt lat="43.52452" lon="5.52184">
        <ele>275.8359375</ele>
        <time>2019-03-23T13:54:32Z</time>
      </trkpt>
      <trkpt lat="43.52453" lon="5.52163">
        <ele>273.24609375</ele>
        <time>2019-03-23T13:54:47Z</time>
      </trkpt>
      <trkpt lat="43.52454" lon="5.52162">
        <ele>273.19140625</ele>
        <time>2019-03-23T13:54:48Z</time>
      </trkpt>
      <trkpt lat="43.52453" lon="5.52147">
        <ele>271.37109375</ele>
        <time>2019-03-23T13:55:00Z</time>
      </trkpt>
      <trkpt lat="43.52452" lon="5.52137">
        <ele>269.67578125</ele>
        <time>2019-03-23T13:55:10Z</time>
      </trkpt>
      <trkpt lat="43.52453" lon="5.52134">
        <ele>269.60546875</ele>
        <time>2019-03-23T13:55:12Z</time>
      </trkpt>
      <trkpt lat="43.52456" lon="5.52125">
        <ele>269.69921875</ele>
        <time>2019-03-23T13:55:21Z</time>
      </trkpt>
      <trkpt lat="43.52456" lon="5.52108">
        <ele>267.5</ele>
        <time>2019-03-23T13:55:33Z</time>
      </trkpt>
      <trkpt lat="43.52457" lon="5.52097">
        <ele>265.89453125</ele>
        <time>2019-03-23T13:55:45Z</time>
      </trkpt>
      <trkpt lat="43.52455" lon="5.52083">
        <ele>262.57421875</ele>
        <time>2019-03-23T13:55:58Z</time>
      </trkpt>
      <trkpt lat="43.52454" lon="5.52079">
        <ele>261.30859375</ele>
        <time>2019-03-23T13:56:06Z</time>
      </trkpt>
      <trkpt lat="43.52445" lon="5.52072">
        <ele>256.89453125</ele>
        <time>2019-03-23T13:56:13Z</time>
      </trkpt>
      <trkpt lat="43.52442" lon="5.52055">
        <ele>254.61328125</ele>
        <time>2019-03-23T13:56:26Z</time>
      </trkpt>
      <trkpt lat="43.52432" lon="5.52046">
        <ele>249.9453125</ele>
        <time>2019-03-23T13:56:37Z</time>
      </trkpt>
      <trkpt lat="43.52432" lon="5.52045">
        <ele>249.83984375</ele>
        <time>2019-03-23T13:56:39Z</time>
      </trkpt>
      <trkpt lat="43.52432" lon="5.52035">
        <ele>249.6171875</ele>
        <time>2019-03-23T13:56:51Z</time>
      </trkpt>
      <trkpt lat="43.52434" lon="5.52024">
        <ele>250.125</ele>
        <time>2019-03-23T13:57:04Z</time>
      </trkpt>
      <trkpt lat="43.52435" lon="5.52011">
        <ele>250.703125</ele>
        <time>2019-03-23T13:57:15Z</time>
      </trkpt>
      <trkpt lat="43.52436" lon="5.51999">
        <ele>250.9765625</ele>
        <time>2019-03-23T13:57:26Z</time>
      </trkpt>
      <trkpt lat="43.52439" lon="5.51983">
        <ele>252.5546875</ele>
        <time>2019-03-23T13:57:39Z</time>
      </trkpt>
      <trkpt lat="43.52445" lon="5.51968">
        <ele>254.78125</ele>
        <time>2019-03-23T13:57:52Z</time>
      </trkpt>
      <trkpt lat="43.5245" lon="5.51961">
        <ele>256.58203125</ele>
        <time>2019-03-23T13:58:03Z</time>
      </trkpt>
      <trkpt lat="43.52452" lon="5.51949">
        <ele>256.890625</ele>
        <time>2019-03-23T13:58:17Z</time>
      </trkpt>
      <trkpt lat="43.52451" lon="5.51934">
        <ele>255.8125</ele>
        <time>2019-03-23T13:58:25Z</time>
      </trkpt>
      <trkpt lat="43.52453" lon="5.51925">
        <ele>256.20703125</ele>
        <time>2019-03-23T13:58:29Z</time>
      </trkpt>
      <trkpt lat="43.52458" lon="5.51891">
        <ele>255.734375</ele>
        <time>2019-03-23T13:58:43Z</time>
      </trkpt>
      <trkpt lat="43.52458" lon="5.51889">
        <ele>255.4921875</ele>
        <time>2019-03-23T13:58:44Z</time>
      </trkpt>
      <trkpt lat="43.52463" lon="5.51875">
        <ele>256.99609375</ele>
        <time>2019-03-23T13:58:55Z</time>
      </trkpt>
      <trkpt lat="43.52467" lon="5.51863">
        <ele>258.3671875</ele>
        <time>2019-03-23T13:59:07Z</time>
      </trkpt>
      <trkpt lat="43.52471" lon="5.51851">
        <ele>259.87890625</ele>
        <time>2019-03-23T13:59:18Z</time>
      </trkpt>
      <trkpt lat="43.52472" lon="5.51847">
        <ele>260.265625</ele>
        <time>2019-03-23T13:59:22Z</time>
      </trkpt>
      <trkpt lat="43.52477" lon="5.5183">
        <ele>261.97265625</ele>
        <time>2019-03-23T13:59:36Z</time>
      </trkpt>
      <trkpt lat="43.5248" lon="5.51819">
        <ele>263.203125</ele>
        <time>2019-03-23T13:59:47Z</time>
      </trkpt>
      <trkpt lat="43.52483" lon="5.518">
        <ele>263.75</ele>
        <time>2019-03-23T13:59:51Z</time>
      </trkpt>
      <trkpt lat="43.52485" lon="5.51795">
        <ele>264.28125</ele>
        <time>2019-03-23T13:59:53Z</time>
      </trkpt>
      <trkpt lat="43.52488" lon="5.51782">
        <ele>264.6875</ele>
        <time>2019-03-23T14:00:03Z</time>
      </trkpt>
      <trkpt lat="43.52488" lon="5.51769">
        <ele>264.0546875</ele>
        <time>2019-03-23T14:00:12Z</time>
      </trkpt>
      <trkpt lat="43.52489" lon="5.51764">
        <ele>264.0390625</ele>
        <time>2019-03-23T14:00:16Z</time>
      </trkpt>
      <trkpt lat="43.52486" lon="5.51756">
        <ele>262.83984375</ele>
        <time>2019-03-23T14:00:21Z</time>
      </trkpt>
      <trkpt lat="43.52485" lon="5.51751">
        <ele>262.04296875</ele>
        <time>2019-03-23T14:00:26Z</time>
      </trkpt>
      <trkpt lat="43.52485" lon="5.51748">
        <ele>261.8828125</ele>
        <time>2019-03-23T14:00:28Z</time>
      </trkpt>
      <trkpt lat="43.52485" lon="5.51744">
        <ele>261.8671875</ele>
        <time>2019-03-23T14:00:31Z</time>
      </trkpt>
      <trkpt lat="43.52481" lon="5.5173">
        <ele>259.6875</ele>
        <time>2019-03-23T14:00:42Z</time>
      </trkpt>
      <trkpt lat="43.5248" lon="5.51716">
        <ele>258.7890625</ele>
        <time>2019-03-23T14:00:52Z</time>
      </trkpt>
      <trkpt lat="43.5248" lon="5.51713">
        <ele>258.8515625</ele>
        <time>2019-03-23T14:00:54Z</time>
      </trkpt>
      <trkpt lat="43.5248" lon="5.51695">
        <ele>258.3125</ele>
        <time>2019-03-23T14:01:09Z</time>
      </trkpt>
      <trkpt lat="43.52478" lon="5.51677">
        <ele>257.0703125</ele>
        <time>2019-03-23T14:01:23Z</time>
      </trkpt>
      <trkpt lat="43.52478" lon="5.51661">
        <ele>256.23828125</ele>
        <time>2019-03-23T14:01:35Z</time>
      </trkpt>
      <trkpt lat="43.52477" lon="5.51657">
        <ele>255.49609375</ele>
        <time>2019-03-23T14:01:38Z</time>
      </trkpt>
      <trkpt lat="43.5248" lon="5.51641">
        <ele>255.41015625</ele>
        <time>2019-03-23T14:01:48Z</time>
      </trkpt>
      <trkpt lat="43.52481" lon="5.51631">
        <ele>255.2421875</ele>
        <time>2019-03-23T14:01:55Z</time>
      </trkpt>
      <trkpt lat="43.52482" lon="5.51614">
        <ele>253.8671875</ele>
        <time>2019-03-23T14:02:06Z</time>
      </trkpt>
      <trkpt lat="43.52481" lon="5.51611">
        <ele>253.22265625</ele>
        <time>2019-03-23T14:02:10Z</time>
      </trkpt>
      <trkpt lat="43.52481" lon="5.51593">
        <ele>251.1171875</ele>
        <time>2019-03-23T14:02:24Z</time>
      </trkpt>
      <trkpt lat="43.52481" lon="5.51567">
        <ele>248.84375</ele>
        <time>2019-03-23T14:02:38Z</time>
      </trkpt>
      <trkpt lat="43.52481" lon="5.51553">
        <ele>247.92578125</ele>
        <time>2019-03-23T14:02:47Z</time>
      </trkpt>
      <trkpt lat="43.52483" lon="5.51543">
        <ele>247.55859375</ele>
        <time>2019-03-23T14:02:53Z</time>
      </trkpt>
      <trkpt lat="43.52481" lon="5.51525">
        <ele>244.7578125</ele>
        <time>2019-03-23T14:03:05Z</time>
      </trkpt>
      <trkpt lat="43.5248" lon="5.51523">
        <ele>244.3046875</ele>
        <time>2019-03-23T14:03:08Z</time>
      </trkpt>
      <trkpt lat="43.52474" lon="5.51511">
        <ele>240.95703125</ele>
        <time>2019-03-23T14:03:21Z</time>
      </trkpt>
      <trkpt lat="43.52462" lon="5.51514">
        <ele>236.828125</ele>
        <time>2019-03-23T14:03:32Z</time>
      </trkpt>
      <trkpt lat="43.52457" lon="5.51512">
        <ele>235.015625</ele>
        <time>2019-03-23T14:03:40Z</time>
      </trkpt>
      <trkpt lat="43.52451" lon="5.51519">
        <ele>234.1015625</ele>
        <time>2019-03-23T14:03:54Z</time>
      </trkpt>
      <trkpt lat="43.52442" lon="5.51519">
        <ele>231.3125</ele>
        <time>2019-03-23T14:04:06Z</time>
      </trkpt>
      <trkpt lat="43.52439" lon="5.51518">
        <ele>230.3984375</ele>
        <time>2019-03-23T14:04:10Z</time>
      </trkpt>
      <trkpt lat="43.52432" lon="5.51517">
        <ele>228.25390625</ele>
        <time>2019-03-23T14:04:22Z</time>
      </trkpt>
      <trkpt lat="43.52431" lon="5.51517">
        <ele>228.140625</ele>
        <time>2019-03-23T14:04:23Z</time>
      </trkpt>
      <trkpt lat="43.52426" lon="5.51514">
        <ele>226.80859375</ele>
        <time>2019-03-23T14:04:35Z</time>
      </trkpt>
      <trkpt lat="43.52423" lon="5.51507">
        <ele>225.5546875</ele>
        <time>2019-03-23T14:04:47Z</time>
      </trkpt>
      <trkpt lat="43.52416" lon="5.515">
        <ele>223.515625</ele>
        <time>2019-03-23T14:04:59Z</time>
      </trkpt>
      <trkpt lat="43.52414" lon="5.51499">
        <ele>222.95703125</ele>
        <time>2019-03-23T14:05:02Z</time>
      </trkpt>
      <trkpt lat="43.52398" lon="5.51484">
        <ele>218.91796875</ele>
        <time>2019-03-23T14:05:16Z</time>
      </trkpt>
      <trkpt lat="43.52386" lon="5.51473">
        <ele>216.4765625</ele>
        <time>2019-03-23T14:05:29Z</time>
      </trkpt>
      <trkpt lat="43.52381" lon="5.51471">
        <ele>215.703125</ele>
        <time>2019-03-23T14:05:38Z</time>
      </trkpt>
      <trkpt lat="43.52377" lon="5.51467">
        <ele>214.984375</ele>
        <time>2019-03-23T14:05:52Z</time>
      </trkpt>
      <trkpt lat="43.52372" lon="5.51461">
        <ele>214.24609375</ele>
        <time>2019-03-23T14:06:01Z</time>
      </trkpt>
      <trkpt lat="43.52359" lon="5.51464">
        <ele>213.859375</ele>
        <time>2019-03-23T14:06:13Z</time>
      </trkpt>
      <trkpt lat="43.52345" lon="5.51462">
        <ele>212.77734375</ele>
        <time>2019-03-23T14:06:26Z</time>
      </trkpt>
      <trkpt lat="43.52332" lon="5.51457">
        <ele>210.63671875</ele>
        <time>2019-03-23T14:06:38Z</time>
      </trkpt>
      <trkpt lat="43.52328" lon="5.51454">
        <ele>209.85546875</ele>
        <time>2019-03-23T14:06:50Z</time>
      </trkpt>
      <trkpt lat="43.52316" lon="5.51454">
        <ele>208.33203125</ele>
        <time>2019-03-23T14:07:01Z</time>
      </trkpt>
      <trkpt lat="43.52304" lon="5.51455">
        <ele>206.90625</ele>
        <time>2019-03-23T14:07:11Z</time>
      </trkpt>
      <trkpt lat="43.52281" lon="5.51452">
        <ele>204.06640625</ele>
        <time>2019-03-23T14:07:26Z</time>
      </trkpt>
      <trkpt lat="43.52268" lon="5.51447">
        <ele>202.50390625</ele>
        <time>2019-03-23T14:07:41Z</time>
      </trkpt>
      <trkpt lat="43.52256" lon="5.51444">
        <ele>201.1015625</ele>
        <time>2019-03-23T14:07:56Z</time>
      </trkpt>
      <trkpt lat="43.52255" lon="5.51443">
        <ele>200.93359375</ele>
        <time>2019-03-23T14:07:58Z</time>
      </trkpt>
      <trkpt lat="43.52236" lon="5.51437">
        <ele>198.84375</ele>
        <time>2019-03-23T14:08:09Z</time>
      </trkpt>
      <trkpt lat="43.52227" lon="5.51439">
        <ele>197.9296875</ele>
        <time>2019-03-23T14:08:16Z</time>
      </trkpt>
      <trkpt lat="43.52216" lon="5.51435">
        <ele>196.671875</ele>
        <time>2019-03-23T14:08:30Z</time>
      </trkpt>
      <trkpt lat="43.52215" lon="5.51434">
        <ele>196.65625</ele>
        <time>2019-03-23T14:08:32Z</time>
      </trkpt>
      <trkpt lat="43.52213" lon="5.51416">
        <ele>196.4140625</ele>
        <time>2019-03-23T14:08:42Z</time>
      </trkpt>
      <trkpt lat="43.52211" lon="5.51406">
        <ele>196.17578125</ele>
        <time>2019-03-23T14:08:50Z</time>
      </trkpt>
      <trkpt lat="43.5221" lon="5.51403">
        <ele>196.07421875</ele>
        <time>2019-03-23T14:08:52Z</time>
      </trkpt>
      <trkpt lat="43.52209" lon="5.51385">
        <ele>195.91015625</ele>
        <time>2019-03-23T14:09:05Z</time>
      </trkpt>
      <trkpt lat="43.52208" lon="5.51382">
        <ele>195.8203125</ele>
        <time>2019-03-23T14:09:07Z</time>
      </trkpt>
      <trkpt lat="43.52208" lon="5.5138">
        <ele>195.828125</ele>
        <time>2019-03-23T14:09:09Z</time>
      </trkpt>
      <trkpt lat="43.52208" lon="5.51373">
        <ele>195.75</ele>
        <time>2019-03-23T14:09:13Z</time>
      </trkpt>
      <trkpt lat="43.52205" lon="5.51359">
        <ele>195.3515625</ele>
        <time>2019-03-23T14:09:22Z</time>
      </trkpt>
      <trkpt lat="43.522" lon="5.51341">
        <ele>194.265625</ele>
        <time>2019-03-23T14:09:34Z</time>
      </trkpt>
      <trkpt lat="43.52197" lon="5.51324">
        <ele>193.6328125</ele>
        <time>2019-03-23T14:09:45Z</time>
      </trkpt>
      <trkpt lat="43.52193" lon="5.51312">
        <ele>193.2421875</ele>
        <time>2019-03-23T14:09:53Z</time>
      </trkpt>
      <trkpt lat="43.52192" lon="5.51308">
        <ele>193.09765625</ele>
        <time>2019-03-23T14:09:56Z</time>
      </trkpt>
      <trkpt lat="43.52188" lon="5.51291">
        <ele>192.16796875</ele>
        <time>2019-03-23T14:10:06Z</time>
      </trkpt>
      <trkpt lat="43.52188" lon="5.51268">
        <ele>191.171875</ele>
        <time>2019-03-23T14:10:17Z</time>
      </trkpt>
      <trkpt lat="43.52188" lon="5.51259">
        <ele>190.86328125</ele>
        <time>2019-03-23T14:10:22Z</time>
      </trkpt>
      <trkpt lat="43.52188" lon="5.51251">
        <ele>190.5703125</ele>
        <time>2019-03-23T14:10:27Z</time>
      </trkpt>
      <trkpt lat="43.52189" lon="5.51237">
        <ele>190.0703125</ele>
        <time>2019-03-23T14:10:36Z</time>
      </trkpt>
      <trkpt lat="43.52188" lon="5.51229">
        <ele>189.6640625</ele>
        <time>2019-03-23T14:10:42Z</time>
      </trkpt>
      <trkpt lat="43.52186" lon="5.51209">
        <ele>188.39453125</ele>
        <time>2019-03-23T14:10:55Z</time>
      </trkpt>
      <trkpt lat="43.52188" lon="5.51203">
        <ele>188.04296875</ele>
        <time>2019-03-23T14:10:59Z</time>
      </trkpt>
      <trkpt lat="43.52186" lon="5.51192">
        <ele>187.1484375</ele>
        <time>2019-03-23T14:11:08Z</time>
      </trkpt>
      <trkpt lat="43.52187" lon="5.51185">
        <ele>186.6953125</ele>
        <time>2019-03-23T14:11:18Z</time>
      </trkpt>
      <trkpt lat="43.52189" lon="5.51178">
        <ele>186.13671875</ele>
        <time>2019-03-23T14:11:25Z</time>
      </trkpt>
      <trkpt lat="43.52192" lon="5.51174">
        <ele>185.8359375</ele>
        <time>2019-03-23T14:11:29Z</time>
      </trkpt>
      <trkpt lat="43.52197" lon="5.51167">
        <ele>185.26953125</ele>
        <time>2019-03-23T14:11:41Z</time>
      </trkpt>
      <trkpt lat="43.52197" lon="5.51166">
        <ele>185.15234375</ele>
        <time>2019-03-23T14:11:52Z</time>
      </trkpt>
      <trkpt lat="43.52191" lon="5.51152">
        <ele>183.83203125</ele>
        <time>2019-03-23T14:12:09Z</time>
      </trkpt>
      <trkpt lat="43.5219" lon="5.51152">
        <ele>183.7734375</ele>
        <time>2019-03-23T14:12:15Z</time>
      </trkpt>
      <trkpt lat="43.52193" lon="5.51157">
        <ele>184.28515625</ele>
        <time>2019-03-23T14:12:29Z</time>
      </trkpt>
      <trkpt lat="43.52192" lon="5.51158">
        <ele>184.40234375</ele>
        <time>2019-03-23T14:12:44Z</time>
      </trkpt>
      <trkpt lat="43.52195" lon="5.5116">
        <ele>184.59375</ele>
        <time>2019-03-23T14:13:09Z</time>
      </trkpt>
    </trkseg>
  </trk>
</gpx>